SWR82A LSZH-FAOR
Flight info
| Callsign | SWR82A |
|---|---|
| Flight time | N/A |
| Altitude | 31000 |
| Route | VEBIT T53 GERSA N850 SOSON DCT ODINA DCT EVROG DCT OLBEK DCT OSMAR UM733 TUC/N0481F320 UW411 EBA UG362 BARKA/N0488F310 UM2 NAGAH/N0484F330 UM2 DJA UB730 DIR UG727 MIU UM998 MENAX/N0485F350 UM998 BUGRO/N0478F370 UM998 IBRIT UT941 RUDAS UQ25 ITROL UQ44 AVAGO AVAGO1C |
| Aircraft | A343/H-SDE2E3FGHIJ4J5M1RWXY/LB1D1 |
Departure
| Time | 2026-05-05 02:44 |
|---|---|
| Airport | Zürich Airport (LSZH) |
Arrival
| Time | N/A |
|---|---|
| Airport | O.R. Tambo International Airport (FAOR) |
| Time | Latitude | Longitude | Altitude | Speed | Heading |
|---|---|---|---|---|---|
| 2026-05-05 02:23 | 47.45174 | 8.55899 | 1400 ft | 0 kts | 186° |
| 2026-05-05 02:32 | 47.45187 | 8.55901 | 1410 ft | 4 kts | 186° |
| 2026-05-05 02:32 | 47.45214 | 8.55906 | 1400 ft | 4 kts | 186° |
| 2026-05-05 02:32 | 47.45237 | 8.55911 | 1400 ft | 4 kts | 207° |
| 2026-05-05 02:32 | 47.45251 | 8.55935 | 1400 ft | 4 kts | 270° |
| 2026-05-05 02:33 | 47.45249 | 8.55961 | 1403 ft | 4 kts | 277° |
| 2026-05-05 02:33 | 47.45248 | 8.55976 | 1400 ft | 0 kts | 276° |
| 2026-05-05 02:36 | 47.45248 | 8.55974 | 1400 ft | 2 kts | 276° |
| 2026-05-05 02:36 | 47.45253 | 8.55902 | 1410 ft | 11 kts | 276° |
| 2026-05-05 02:36 | 47.45262 | 8.55796 | 1403 ft | 10 kts | 276° |
| 2026-05-05 02:36 | 47.45269 | 8.55704 | 1400 ft | 8 kts | 276° |
| 2026-05-05 02:37 | 47.45278 | 8.55610 | 1407 ft | 10 kts | 285° |
| 2026-05-05 02:37 | 47.45329 | 8.55542 | 1401 ft | 14 kts | 331° |
| 2026-05-05 02:37 | 47.45443 | 8.55462 | 1402 ft | 20 kts | 335° |
| 2026-05-05 02:37 | 47.45565 | 8.55379 | 1403 ft | 19 kts | 334° |
| 2026-05-05 02:38 | 47.45679 | 8.55308 | 1400 ft | 17 kts | 341° |
| 2026-05-05 02:38 | 47.45790 | 8.55247 | 1401 ft | 17 kts | 335° |
| 2026-05-05 02:38 | 47.45917 | 8.55159 | 1400 ft | 26 kts | 335° |
| 2026-05-05 02:38 | 47.46085 | 8.55041 | 1400 ft | 26 kts | 334° |
| 2026-05-05 02:39 | 47.46250 | 8.54925 | 1401 ft | 26 kts | 335° |
| 2026-05-05 02:39 | 47.46415 | 8.54811 | 1401 ft | 27 kts | 334° |
| 2026-05-05 02:39 | 47.46583 | 8.54696 | 1401 ft | 27 kts | 336° |
| 2026-05-05 02:39 | 47.46749 | 8.54558 | 1396 ft | 28 kts | 316° |
| 2026-05-05 02:40 | 47.46886 | 8.54364 | 1399 ft | 27 kts | 326° |
| 2026-05-05 02:40 | 47.47048 | 8.54245 | 1409 ft | 26 kts | 335° |
| 2026-05-05 02:40 | 47.47207 | 8.54134 | 1404 ft | 25 kts | 334° |
| 2026-05-05 02:40 | 47.47369 | 8.54027 | 1404 ft | 26 kts | 336° |
| 2026-05-05 02:41 | 47.47542 | 8.53912 | 1401 ft | 28 kts | 335° |
| 2026-05-05 02:41 | 47.47685 | 8.53812 | 1412 ft | 12 kts | 328° |
| 2026-05-05 02:41 | 47.47691 | 8.53731 | 1408 ft | 7 kts | 247° |
| 2026-05-05 02:41 | 47.47663 | 8.53681 | 1406 ft | 5 kts | 220° |
| 2026-05-05 02:42 | 47.47614 | 8.53645 | 1410 ft | 11 kts | 201° |
| 2026-05-05 02:42 | 47.47535 | 8.53612 | 1409 ft | 11 kts | 173° |
| 2026-05-05 02:42 | 47.47506 | 8.53632 | 1402 ft | 0 kts | 152° |
| 2026-05-05 02:43 | 47.47498 | 8.53638 | 1410 ft | 7 kts | 152° |
| 2026-05-05 02:43 | 47.47317 | 8.53773 | 1401 ft | 55 kts | 154° |
| 2026-05-05 02:43 | 47.46812 | 8.54111 | 1408 ft | 102 kts | 155° |
| 2026-05-05 02:43 | 47.46041 | 8.54646 | 1406 ft | 143 kts | 155° |
| 2026-05-05 02:44 | 47.45034 | 8.55344 | 1473 ft | 167 kts | 154° |
| 2026-05-05 02:44 | 47.43999 | 8.56077 | 1955 ft | 167 kts | 154° |
| 2026-05-05 02:44 | 47.42915 | 8.56763 | 2358 ft | 171 kts | 161° |
| 2026-05-05 02:44 | 47.41803 | 8.57459 | 2677 ft | 183 kts | 155° |
| 2026-05-05 02:45 | 47.40594 | 8.58297 | 2846 ft | 197 kts | 154° |
| 2026-05-05 02:45 | 47.39514 | 8.59537 | 3053 ft | 203 kts | 124° |
| 2026-05-05 02:45 | 47.39098 | 8.61489 | 3324 ft | 208 kts | 89° |
| 2026-05-05 02:45 | 47.39307 | 8.63675 | 3472 ft | 223 kts | 76° |
| 2026-05-05 02:46 | 47.39819 | 8.65873 | 3781 ft | 231 kts | 59° |
| 2026-05-05 02:46 | 47.40864 | 8.67645 | 4183 ft | 234 kts | 32° |
| 2026-05-05 02:46 | 47.42384 | 8.68497 | 4654 ft | 235 kts | 10° |
| 2026-05-05 02:46 | 47.44041 | 8.68710 | 5015 ft | 243 kts | 356° |
| 2026-05-05 02:47 | 47.45658 | 8.68091 | 5485 ft | 245 kts | 331° |
| 2026-05-05 02:47 | 47.46899 | 8.66375 | 5910 ft | 249 kts | 298° |
| 2026-05-05 02:47 | 47.47275 | 8.63886 | 6289 ft | 253 kts | 263° |
| 2026-05-05 02:47 | 47.46983 | 8.61348 | 6759 ft | 254 kts | 255° |
| 2026-05-05 02:48 | 47.46250 | 8.58960 | 7203 ft | 256 kts | 231° |
| 2026-05-05 02:48 | 47.44915 | 8.57263 | 7646 ft | 256 kts | 212° |
| 2026-05-05 02:48 | 47.43389 | 8.55874 | 8100 ft | 258 kts | 210° |
| 2026-05-05 02:48 | 47.41802 | 8.54557 | 8337 ft | 270 kts | 207° |
| 2026-05-05 02:49 | 47.40070 | 8.53292 | 8585 ft | 281 kts | 204° |
| 2026-05-05 02:49 | 47.38244 | 8.52155 | 8800 ft | 293 kts | 200° |
| 2026-05-05 02:49 | 47.36272 | 8.51158 | 9077 ft | 302 kts | 196° |
| 2026-05-05 02:49 | 47.34260 | 8.50385 | 9768 ft | 294 kts | 192° |
| 2026-05-05 02:50 | 47.32281 | 8.49799 | 10381 ft | 291 kts | 191° |
| 2026-05-05 02:50 | 47.30326 | 8.49051 | 10931 ft | 288 kts | 198° |
| 2026-05-05 02:50 | 47.28441 | 8.48004 | 11452 ft | 287 kts | 202° |
| 2026-05-05 02:50 | 47.26584 | 8.46981 | 11929 ft | 287 kts | 197° |
| 2026-05-05 02:51 | 47.24628 | 8.46509 | 12363 ft | 287 kts | 179° |
| 2026-05-05 02:51 | 47.22643 | 8.46987 | 12788 ft | 290 kts | 165° |
| 2026-05-05 02:51 | 47.20725 | 8.47985 | 13162 ft | 293 kts | 158° |
| 2026-05-05 02:51 | 47.18887 | 8.49250 | 13544 ft | 296 kts | 155° |
| 2026-05-05 02:52 | 47.17011 | 8.50546 | 13910 ft | 297 kts | 162° |
| 2026-05-05 02:52 | 47.15040 | 8.51350 | 14280 ft | 297 kts | 169° |
| 2026-05-05 02:52 | 47.12988 | 8.51902 | 14641 ft | 298 kts | 173° |
| 2026-05-05 02:52 | 47.10914 | 8.52302 | 14944 ft | 303 kts | 175° |
| 2026-05-05 02:53 | 47.08819 | 8.52616 | 15129 ft | 310 kts | 176° |
| 2026-05-05 02:53 | 47.06633 | 8.52905 | 15340 ft | 318 kts | 176° |
| 2026-05-05 02:53 | 47.04403 | 8.53192 | 15528 ft | 326 kts | 176° |
| 2026-05-05 02:53 | 47.02112 | 8.53490 | 15726 ft | 333 kts | 176° |
| 2026-05-05 02:54 | 46.99794 | 8.53805 | 15923 ft | 341 kts | 176° |
| 2026-05-05 02:54 | 46.97749 | 8.54094 | 16103 ft | 348 kts | 176° |
| 2026-05-05 02:55 | 46.95901 | 8.54358 | 16234 ft | 353 kts | 176° |
| 2026-05-05 02:55 | 46.93428 | 8.54714 | 16429 ft | 359 kts | 176° |
| 2026-05-05 02:55 | 46.90893 | 8.55079 | 16632 ft | 367 kts | 176° |
| 2026-05-05 02:56 | 46.88353 | 8.55444 | 16816 ft | 374 kts | 176° |
| 2026-05-05 02:56 | 46.85720 | 8.55823 | 17013 ft | 382 kts | 176° |
| 2026-05-05 02:56 | 46.83043 | 8.56208 | 17201 ft | 389 kts | 176° |
| 2026-05-05 02:56 | 46.80353 | 8.56596 | 17394 ft | 395 kts | 176° |
| 2026-05-05 02:57 | 46.77591 | 8.56997 | 17592 ft | 400 kts | 176° |
| 2026-05-05 02:57 | 46.74796 | 8.57396 | 17809 ft | 404 kts | 176° |
| 2026-05-05 02:57 | 46.72021 | 8.57791 | 18247 ft | 403 kts | 176° |
| 2026-05-05 02:57 | 46.69212 | 8.58186 | 18632 ft | 404 kts | 176° |
| 2026-05-05 02:58 | 46.66425 | 8.58578 | 19015 ft | 405 kts | 176° |
| 2026-05-05 02:58 | 46.63607 | 8.58981 | 19366 ft | 407 kts | 176° |
| 2026-05-05 02:58 | 46.60771 | 8.59390 | 19685 ft | 409 kts | 176° |
| 2026-05-05 02:58 | 46.57959 | 8.59791 | 20060 ft | 409 kts | 176° |
| 2026-05-05 02:59 | 46.55107 | 8.60201 | 20356 ft | 412 kts | 176° |
| 2026-05-05 02:59 | 46.52225 | 8.60614 | 20686 ft | 414 kts | 176° |
| 2026-05-05 02:59 | 46.49367 | 8.61022 | 21051 ft | 414 kts | 176° |
| 2026-05-05 02:59 | 46.46481 | 8.61432 | 21332 ft | 416 kts | 176° |
| 2026-05-05 03:00 | 46.43617 | 8.61841 | 21621 ft | 418 kts | 176° |
| 2026-05-05 03:00 | 46.40707 | 8.62252 | 21902 ft | 420 kts | 176° |
| 2026-05-05 03:00 | 46.37787 | 8.62661 | 22148 ft | 421 kts | 176° |
| 2026-05-05 03:00 | 46.34895 | 8.63066 | 22449 ft | 423 kts | 176° |
| 2026-05-05 03:01 | 46.31939 | 8.63480 | 22726 ft | 424 kts | 176° |
| 2026-05-05 03:01 | 46.29017 | 8.63890 | 23013 ft | 426 kts | 176° |
| 2026-05-05 03:01 | 46.26067 | 8.64297 | 23301 ft | 426 kts | 176° |
| 2026-05-05 03:01 | 46.23094 | 8.64712 | 23545 ft | 428 kts | 176° |
| 2026-05-05 03:02 | 46.20119 | 8.65130 | 23756 ft | 430 kts | 176° |
| 2026-05-05 03:02 | 46.17170 | 8.65547 | 24037 ft | 431 kts | 176° |
| 2026-05-05 03:02 | 46.14171 | 8.65971 | 24285 ft | 432 kts | 176° |
| 2026-05-05 03:02 | 46.11162 | 8.66514 | 24458 ft | 436 kts | 171° |
| 2026-05-05 03:03 | 46.08221 | 8.67485 | 24636 ft | 439 kts | 168° |
| 2026-05-05 03:03 | 46.05232 | 8.68640 | 24835 ft | 441 kts | 166° |
| 2026-05-05 03:03 | 46.02300 | 8.69853 | 25001 ft | 444 kts | 166° |
| 2026-05-05 03:03 | 45.99325 | 8.71123 | 25243 ft | 445 kts | 165° |
| 2026-05-05 03:04 | 45.96340 | 8.72407 | 25443 ft | 447 kts | 165° |
| 2026-05-05 03:04 | 45.93349 | 8.73690 | 25665 ft | 448 kts | 166° |
| 2026-05-05 03:04 | 45.90381 | 8.74956 | 25830 ft | 451 kts | 166° |
| 2026-05-05 03:04 | 45.87347 | 8.76241 | 26003 ft | 453 kts | 166° |
| 2026-05-05 03:05 | 45.84313 | 8.77520 | 26211 ft | 454 kts | 166° |
| 2026-05-05 03:05 | 45.81307 | 8.78782 | 26414 ft | 455 kts | 166° |
| 2026-05-05 03:05 | 45.78243 | 8.80065 | 26578 ft | 457 kts | 166° |
| 2026-05-05 03:05 | 45.75171 | 8.81351 | 26746 ft | 459 kts | 166° |
| 2026-05-05 03:06 | 45.72145 | 8.82617 | 26929 ft | 461 kts | 166° |
| 2026-05-05 03:06 | 45.69093 | 8.83890 | 27126 ft | 462 kts | 166° |
| 2026-05-05 03:06 | 45.65985 | 8.85186 | 27299 ft | 463 kts | 166° |
| 2026-05-05 03:06 | 45.62907 | 8.86468 | 27454 ft | 465 kts | 166° |
| 2026-05-05 03:07 | 45.59783 | 8.87770 | 27625 ft | 466 kts | 166° |
| 2026-05-05 03:07 | 45.56687 | 8.89060 | 27772 ft | 467 kts | 166° |
| 2026-05-05 03:07 | 45.53548 | 8.90368 | 27943 ft | 468 kts | 166° |
| 2026-05-05 03:07 | 45.50442 | 8.91660 | 28072 ft | 470 kts | 166° |
| 2026-05-05 03:08 | 45.47292 | 8.92967 | 28225 ft | 471 kts | 166° |
| 2026-05-05 03:08 | 45.44144 | 8.94267 | 28487 ft | 469 kts | 166° |
| 2026-05-05 03:08 | 45.41020 | 8.95560 | 28951 ft | 463 kts | 166° |
| 2026-05-05 03:08 | 45.37961 | 8.96824 | 29148 ft | 462 kts | 166° |
| 2026-05-05 03:09 | 45.34851 | 8.98106 | 29282 ft | 463 kts | 166° |
| 2026-05-05 03:09 | 45.31780 | 8.99370 | 29441 ft | 464 kts | 166° |
| 2026-05-05 03:09 | 45.28673 | 9.00648 | 29608 ft | 464 kts | 166° |
| 2026-05-05 03:09 | 45.25547 | 9.01936 | 29787 ft | 463 kts | 166° |
| 2026-05-05 03:10 | 45.22470 | 9.03200 | 29979 ft | 463 kts | 166° |
| 2026-05-05 03:10 | 45.19380 | 9.04467 | 30171 ft | 461 kts | 166° |
| 2026-05-05 03:10 | 45.16288 | 9.05733 | 30300 ft | 462 kts | 166° |
| 2026-05-05 03:10 | 45.13191 | 9.07000 | 30432 ft | 462 kts | 166° |
| 2026-05-05 03:11 | 45.10139 | 9.08250 | 30588 ft | 462 kts | 166° |
| 2026-05-05 03:11 | 45.07046 | 9.09515 | 30777 ft | 461 kts | 166° |
| 2026-05-05 03:11 | 45.03957 | 9.10776 | 30917 ft | 461 kts | 166° |
| 2026-05-05 03:12 | 44.97814 | 9.13277 | 30992 ft | 460 kts | 166° |
| 2026-05-05 03:12 | 44.91649 | 9.15780 | 30990 ft | 458 kts | 166° |
| 2026-05-05 03:13 | 44.85518 | 9.18271 | 30990 ft | 459 kts | 166° |
| 2026-05-05 03:13 | 44.79394 | 9.20749 | 30981 ft | 459 kts | 167° |
| 2026-05-05 03:14 | 44.73284 | 9.23218 | 30980 ft | 458 kts | 167° |
| 2026-05-05 03:14 | 44.67151 | 9.25688 | 30983 ft | 459 kts | 167° |
| 2026-05-05 03:15 | 44.61027 | 9.28149 | 30986 ft | 458 kts | 167° |
| 2026-05-05 03:15 | 44.54894 | 9.30608 | 30981 ft | 459 kts | 167° |
| 2026-05-05 03:16 | 44.48751 | 9.33065 | 30979 ft | 459 kts | 167° |
| 2026-05-05 03:16 | 44.42566 | 9.35535 | 30979 ft | 460 kts | 167° |
| 2026-05-05 03:17 | 44.36434 | 9.37981 | 30989 ft | 460 kts | 167° |
| 2026-05-05 03:17 | 44.30277 | 9.40427 | 30993 ft | 461 kts | 167° |
| 2026-05-05 03:18 | 44.24125 | 9.42867 | 30989 ft | 461 kts | 167° |
| 2026-05-05 03:18 | 44.17953 | 9.45312 | 30990 ft | 461 kts | 167° |
| 2026-05-05 03:19 | 44.08713 | 9.48962 | 30990 ft | 460 kts | 167° |
| 2026-05-05 03:19 | 44.03569 | 9.50986 | 30990 ft | 461 kts | 167° |
| 2026-05-05 03:20 | 43.97406 | 9.53406 | 30990 ft | 461 kts | 168° |
| 2026-05-05 03:20 | 43.91224 | 9.55828 | 30990 ft | 461 kts | 168° |
| 2026-05-05 03:21 | 43.85057 | 9.58239 | 30990 ft | 462 kts | 168° |
| 2026-05-05 03:21 | 43.78850 | 9.60662 | 30990 ft | 462 kts | 168° |
| 2026-05-05 03:22 | 43.72668 | 9.63067 | 30990 ft | 461 kts | 168° |
| 2026-05-05 03:22 | 43.66502 | 9.65464 | 30991 ft | 462 kts | 168° |
| 2026-05-05 03:23 | 43.60309 | 9.67872 | 30981 ft | 461 kts | 168° |
| 2026-05-05 03:23 | 43.54141 | 9.70262 | 30981 ft | 461 kts | 168° |
| 2026-05-05 03:24 | 43.47981 | 9.72638 | 30980 ft | 461 kts | 168° |
| 2026-05-05 03:24 | 43.41792 | 9.75022 | 30981 ft | 461 kts | 168° |
| 2026-05-05 03:25 | 43.35604 | 9.77400 | 30981 ft | 461 kts | 168° |
| 2026-05-05 03:25 | 43.29427 | 9.79777 | 30981 ft | 460 kts | 169° |
| 2026-05-05 03:26 | 43.23199 | 9.81270 | 30983 ft | 452 kts | 181° |
| 2026-05-05 03:26 | 43.16937 | 9.81563 | 30981 ft | 451 kts | 183° |
| 2026-05-05 03:27 | 43.10645 | 9.81665 | 30972 ft | 450 kts | 184° |
| 2026-05-05 03:27 | 43.04380 | 9.81758 | 30970 ft | 450 kts | 184° |
| 2026-05-05 03:28 | 42.98127 | 9.81875 | 30972 ft | 450 kts | 184° |
| 2026-05-05 03:28 | 42.91861 | 9.82007 | 30963 ft | 449 kts | 184° |
| 2026-05-05 03:29 | 42.85627 | 9.82137 | 30962 ft | 448 kts | 185° |
| 2026-05-05 03:29 | 42.79407 | 9.82272 | 30955 ft | 448 kts | 185° |
| 2026-05-05 03:30 | 42.73169 | 9.82403 | 30953 ft | 447 kts | 185° |
| 2026-05-05 03:30 | 42.66961 | 9.82530 | 30944 ft | 447 kts | 185° |
| 2026-05-05 03:31 | 42.60776 | 9.82655 | 30946 ft | 446 kts | 185° |
| 2026-05-05 03:31 | 42.54536 | 9.82786 | 30947 ft | 446 kts | 186° |
| 2026-05-05 03:32 | 42.48345 | 9.82913 | 30952 ft | 446 kts | 186° |
| 2026-05-05 03:32 | 42.42176 | 9.83038 | 30953 ft | 445 kts | 186° |
| 2026-05-05 03:33 | 42.35974 | 9.83164 | 30953 ft | 445 kts | 186° |
| 2026-05-05 03:33 | 42.29779 | 9.83291 | 30953 ft | 445 kts | 186° |
| 2026-05-05 03:34 | 42.23586 | 9.83421 | 30960 ft | 445 kts | 186° |
| 2026-05-05 03:34 | 42.17403 | 9.83543 | 30963 ft | 446 kts | 186° |
| 2026-05-05 03:35 | 42.11214 | 9.83667 | 30962 ft | 445 kts | 186° |
| 2026-05-05 03:35 | 42.04990 | 9.83801 | 30962 ft | 445 kts | 186° |
| 2026-05-05 03:36 | 41.98813 | 9.83930 | 30962 ft | 445 kts | 186° |
| 2026-05-05 03:36 | 41.92639 | 9.84055 | 30965 ft | 445 kts | 186° |
| 2026-05-05 03:37 | 41.86484 | 9.84171 | 30980 ft | 445 kts | 186° |
| 2026-05-05 03:37 | 41.80268 | 9.84301 | 30981 ft | 444 kts | 186° |
| 2026-05-05 03:38 | 41.74107 | 9.84433 | 30981 ft | 444 kts | 186° |
| 2026-05-05 03:38 | 41.67907 | 9.84555 | 30981 ft | 445 kts | 186° |
| 2026-05-05 03:39 | 41.61737 | 9.84676 | 30981 ft | 445 kts | 186° |
| 2026-05-05 03:39 | 41.55521 | 9.84801 | 30981 ft | 446 kts | 186° |
| 2026-05-05 03:40 | 41.49333 | 9.84926 | 30980 ft | 445 kts | 186° |
| 2026-05-05 03:40 | 41.43157 | 9.85047 | 30981 ft | 445 kts | 186° |
| 2026-05-05 03:41 | 41.36935 | 9.85170 | 30982 ft | 446 kts | 186° |
| 2026-05-05 03:41 | 41.30727 | 9.85291 | 30990 ft | 446 kts | 186° |
| 2026-05-05 03:42 | 41.24542 | 9.85414 | 30990 ft | 446 kts | 186° |
| 2026-05-05 03:42 | 41.18335 | 9.85325 | 31000 ft | 444 kts | 188° |
| 2026-05-05 03:43 | 41.12154 | 9.85114 | 31000 ft | 445 kts | 188° |
| 2026-05-05 03:43 | 41.05957 | 9.84934 | 31000 ft | 446 kts | 188° |
| 2026-05-05 03:44 | 40.99748 | 9.84781 | 30997 ft | 447 kts | 187° |
| 2026-05-05 03:44 | 40.93527 | 9.84636 | 30990 ft | 448 kts | 188° |
| 2026-05-05 03:45 | 40.87262 | 9.84494 | 30990 ft | 449 kts | 187° |
| 2026-05-05 03:45 | 40.81030 | 9.84352 | 30989 ft | 450 kts | 187° |
| 2026-05-05 03:46 | 40.74769 | 9.84208 | 30990 ft | 451 kts | 187° |
| 2026-05-05 03:46 | 40.68478 | 9.84069 | 31001 ft | 451 kts | 187° |
| 2026-05-05 03:47 | 40.62218 | 9.83932 | 30998 ft | 452 kts | 187° |
| 2026-05-05 03:47 | 40.55896 | 9.83784 | 31000 ft | 453 kts | 187° |
| 2026-05-05 03:48 | 40.49608 | 9.83639 | 30997 ft | 453 kts | 187° |
| 2026-05-05 03:48 | 40.43300 | 9.83495 | 30997 ft | 455 kts | 187° |
| 2026-05-05 03:49 | 40.36925 | 9.83352 | 31000 ft | 456 kts | 187° |
| 2026-05-05 03:49 | 40.30603 | 9.83212 | 31000 ft | 456 kts | 187° |
| 2026-05-05 03:50 | 40.24276 | 9.83070 | 31000 ft | 457 kts | 187° |
| 2026-05-05 03:50 | 40.17895 | 9.82925 | 31000 ft | 457 kts | 187° |
| 2026-05-05 03:51 | 40.11552 | 9.82781 | 31009 ft | 457 kts | 187° |
| 2026-05-05 03:51 | 40.05190 | 9.82640 | 31009 ft | 458 kts | 187° |
| 2026-05-05 03:52 | 39.98809 | 9.82499 | 31009 ft | 459 kts | 187° |
| 2026-05-05 03:52 | 39.92437 | 9.82356 | 31009 ft | 458 kts | 187° |
| 2026-05-05 03:53 | 39.86045 | 9.82212 | 31017 ft | 458 kts | 187° |
| 2026-05-05 03:53 | 39.79676 | 9.82068 | 31018 ft | 458 kts | 187° |
| 2026-05-05 03:54 | 39.73292 | 9.81929 | 31018 ft | 458 kts | 187° |
| 2026-05-05 03:54 | 39.66935 | 9.81794 | 31018 ft | 457 kts | 187° |
| 2026-05-05 03:55 | 39.60564 | 9.81649 | 31019 ft | 457 kts | 187° |
| 2026-05-05 03:55 | 39.54210 | 9.81506 | 31018 ft | 458 kts | 187° |
| 2026-05-05 03:56 | 39.47830 | 9.81367 | 31018 ft | 458 kts | 187° |
| 2026-05-05 03:56 | 39.41462 | 9.81226 | 31018 ft | 458 kts | 187° |
| 2026-05-05 03:57 | 39.35098 | 9.81085 | 31018 ft | 458 kts | 187° |
| 2026-05-05 03:57 | 39.28696 | 9.80946 | 31018 ft | 458 kts | 187° |
| 2026-05-05 03:58 | 39.22335 | 9.80808 | 31024 ft | 458 kts | 186° |
| 2026-05-05 03:58 | 39.15933 | 9.80669 | 31027 ft | 459 kts | 186° |
| 2026-05-05 03:59 | 39.09554 | 9.80531 | 31027 ft | 460 kts | 186° |
| 2026-05-05 03:59 | 39.03156 | 9.80392 | 31027 ft | 460 kts | 186° |
| 2026-05-05 04:00 | 38.96763 | 9.80251 | 31027 ft | 461 kts | 186° |
| 2026-05-05 04:00 | 38.90317 | 9.80114 | 31027 ft | 462 kts | 186° |
| 2026-05-05 04:01 | 38.83900 | 9.79975 | 31027 ft | 462 kts | 186° |
| 2026-05-05 04:01 | 38.77482 | 9.79836 | 31027 ft | 463 kts | 186° |
| 2026-05-05 04:02 | 38.71011 | 9.79698 | 31027 ft | 464 kts | 186° |
| 2026-05-05 04:02 | 38.64569 | 9.79557 | 31027 ft | 465 kts | 186° |
| 2026-05-05 04:03 | 38.59177 | 9.79440 | 31027 ft | 465 kts | 186° |
| 2026-05-05 04:03 | 38.52667 | 9.79302 | 31027 ft | 466 kts | 186° |
| 2026-05-05 04:04 | 38.46187 | 9.79164 | 31027 ft | 467 kts | 186° |
| 2026-05-05 04:04 | 38.39703 | 9.79026 | 31027 ft | 468 kts | 186° |
| 2026-05-05 04:05 | 38.33158 | 9.78885 | 31027 ft | 468 kts | 185° |
| 2026-05-05 04:05 | 38.26643 | 9.78878 | 31026 ft | 473 kts | 180° |
| 2026-05-05 04:06 | 38.20131 | 9.80388 | 31027 ft | 478 kts | 171° |
| 2026-05-05 04:06 | 38.13661 | 9.82438 | 31027 ft | 480 kts | 170° |
| 2026-05-05 04:07 | 38.07199 | 9.84566 | 31026 ft | 481 kts | 170° |
| 2026-05-05 04:07 | 38.00740 | 9.86662 | 31027 ft | 481 kts | 170° |
| 2026-05-05 04:08 | 37.94255 | 9.88745 | 31026 ft | 481 kts | 170° |
| 2026-05-05 04:08 | 37.87747 | 9.90823 | 31027 ft | 481 kts | 170° |
| 2026-05-05 04:09 | 37.81276 | 9.92884 | 31027 ft | 481 kts | 170° |
| 2026-05-05 04:09 | 37.74790 | 9.94947 | 31027 ft | 481 kts | 170° |
| 2026-05-05 04:10 | 37.68292 | 9.97015 | 31027 ft | 480 kts | 170° |
| 2026-05-05 04:10 | 37.61832 | 9.99063 | 31027 ft | 480 kts | 170° |
| 2026-05-05 04:11 | 37.55347 | 10.01114 | 31027 ft | 480 kts | 170° |
| 2026-05-05 04:11 | 37.48876 | 10.03159 | 31027 ft | 481 kts | 170° |
| 2026-05-05 04:12 | 37.42331 | 10.05223 | 31018 ft | 483 kts | 170° |
| 2026-05-05 04:12 | 37.35822 | 10.07270 | 31019 ft | 482 kts | 170° |
| 2026-05-05 04:13 | 37.29335 | 10.09309 | 31017 ft | 482 kts | 170° |
| 2026-05-05 04:13 | 37.22825 | 10.11353 | 31018 ft | 482 kts | 170° |
| 2026-05-05 04:14 | 37.16327 | 10.13388 | 31017 ft | 482 kts | 171° |
| 2026-05-05 04:14 | 37.09800 | 10.15429 | 31018 ft | 482 kts | 171° |
| 2026-05-05 04:15 | 37.03318 | 10.17453 | 31018 ft | 483 kts | 171° |
| 2026-05-05 04:15 | 36.96767 | 10.19495 | 31018 ft | 483 kts | 171° |
| 2026-05-05 04:16 | 36.90253 | 10.21520 | 31018 ft | 483 kts | 171° |
| 2026-05-05 04:16 | 36.83684 | 10.22700 | 31018 ft | 473 kts | 186° |
| 2026-05-05 04:17 | 36.77178 | 10.22149 | 31018 ft | 469 kts | 190° |
| 2026-05-05 04:17 | 36.70702 | 10.21280 | 31017 ft | 469 kts | 191° |
| 2026-05-05 04:18 | 36.64219 | 10.20378 | 31026 ft | 469 kts | 191° |
| 2026-05-05 04:18 | 36.57708 | 10.19502 | 31027 ft | 469 kts | 191° |
| 2026-05-05 04:19 | 36.51239 | 10.18654 | 31027 ft | 469 kts | 191° |
| 2026-05-05 04:19 | 36.44747 | 10.17808 | 31027 ft | 468 kts | 191° |
| 2026-05-05 04:20 | 36.38276 | 10.16961 | 31036 ft | 468 kts | 191° |
| 2026-05-05 04:20 | 36.31805 | 10.16121 | 31036 ft | 468 kts | 191° |
| 2026-05-05 04:21 | 36.25326 | 10.15279 | 31040 ft | 468 kts | 191° |
| 2026-05-05 04:21 | 36.18853 | 10.14441 | 31046 ft | 468 kts | 191° |
| 2026-05-05 04:22 | 36.12384 | 10.13600 | 31045 ft | 467 kts | 191° |
| 2026-05-05 04:22 | 36.05909 | 10.12768 | 31046 ft | 467 kts | 191° |
| 2026-05-05 04:23 | 35.99407 | 10.11939 | 31044 ft | 468 kts | 191° |
| 2026-05-05 04:23 | 35.92970 | 10.11119 | 31046 ft | 468 kts | 191° |
| 2026-05-05 04:24 | 35.86496 | 10.10294 | 31046 ft | 468 kts | 191° |
| 2026-05-05 04:25 | 35.76776 | 10.09057 | 31047 ft | 467 kts | 191° |
| 2026-05-05 04:25 | 35.70286 | 10.08231 | 31046 ft | 468 kts | 191° |
| 2026-05-05 04:26 | 35.63815 | 10.07408 | 31046 ft | 468 kts | 191° |
| 2026-05-05 04:26 | 35.57342 | 10.06589 | 31046 ft | 468 kts | 191° |
| 2026-05-05 04:27 | 35.50875 | 10.05773 | 31044 ft | 468 kts | 191° |
| 2026-05-05 04:27 | 35.44388 | 10.04955 | 31045 ft | 468 kts | 191° |
| 2026-05-05 04:28 | 35.37897 | 10.04133 | 31045 ft | 469 kts | 191° |
| 2026-05-05 04:28 | 35.31403 | 10.03319 | 31045 ft | 469 kts | 191° |
| 2026-05-05 04:29 | 35.24893 | 10.02506 | 31046 ft | 470 kts | 190° |
| 2026-05-05 04:29 | 35.18390 | 10.01699 | 31045 ft | 470 kts | 191° |
| 2026-05-05 04:30 | 35.11869 | 10.00882 | 31044 ft | 470 kts | 191° |
| 2026-05-05 04:30 | 35.05371 | 10.00065 | 31046 ft | 471 kts | 191° |
| 2026-05-05 04:31 | 34.98843 | 9.99253 | 31046 ft | 470 kts | 191° |
| 2026-05-05 04:31 | 34.92349 | 9.98445 | 31046 ft | 469 kts | 191° |
| 2026-05-05 04:32 | 34.85871 | 9.97634 | 31044 ft | 469 kts | 191° |
| 2026-05-05 04:32 | 34.79390 | 9.96825 | 31046 ft | 469 kts | 191° |
| 2026-05-05 04:33 | 34.72907 | 9.96024 | 31045 ft | 469 kts | 191° |
| 2026-05-05 04:33 | 34.66367 | 9.95214 | 31047 ft | 471 kts | 190° |
| 2026-05-05 04:34 | 34.59857 | 9.94414 | 31046 ft | 470 kts | 191° |
| 2026-05-05 04:34 | 34.53360 | 9.93607 | 31039 ft | 470 kts | 191° |
| 2026-05-05 04:35 | 34.46853 | 9.92800 | 31036 ft | 471 kts | 191° |
| 2026-05-05 04:35 | 34.40335 | 9.92106 | 31036 ft | 474 kts | 186° |
| 2026-05-05 04:36 | 34.33747 | 9.91995 | 31026 ft | 474 kts | 185° |
| 2026-05-05 04:36 | 34.27152 | 9.91999 | 31027 ft | 475 kts | 185° |
| 2026-05-05 04:37 | 34.20543 | 9.92020 | 31027 ft | 476 kts | 185° |
| 2026-05-05 04:37 | 34.13896 | 9.92025 | 31027 ft | 475 kts | 185° |
| 2026-05-05 04:38 | 34.07311 | 9.92025 | 31026 ft | 475 kts | 185° |
| 2026-05-05 04:38 | 34.00656 | 9.92024 | 31027 ft | 475 kts | 185° |
| 2026-05-05 04:39 | 33.94041 | 9.92024 | 31018 ft | 475 kts | 185° |
| 2026-05-05 04:39 | 33.87453 | 9.92024 | 31018 ft | 475 kts | 185° |
| 2026-05-05 04:40 | 33.80843 | 9.92022 | 31018 ft | 475 kts | 185° |
| 2026-05-05 04:40 | 33.74253 | 9.91869 | 31018 ft | 472 kts | 191° |
| 2026-05-05 04:41 | 33.67869 | 9.90264 | 31018 ft | 465 kts | 199° |
| 2026-05-05 04:41 | 33.61636 | 9.88202 | 31026 ft | 465 kts | 200° |
| 2026-05-05 04:42 | 33.55420 | 9.86070 | 31027 ft | 465 kts | 200° |
| 2026-05-05 04:42 | 33.49209 | 9.83966 | 31027 ft | 465 kts | 200° |
| 2026-05-05 04:43 | 33.42986 | 9.81882 | 31028 ft | 465 kts | 200° |
| 2026-05-05 04:43 | 33.36739 | 9.79802 | 31027 ft | 465 kts | 200° |
| 2026-05-05 04:44 | 33.30516 | 9.77729 | 31027 ft | 465 kts | 200° |
| 2026-05-05 04:44 | 33.24279 | 9.75654 | 31027 ft | 466 kts | 200° |
| 2026-05-05 04:45 | 33.18015 | 9.73582 | 31027 ft | 466 kts | 200° |
| 2026-05-05 04:45 | 33.11784 | 9.71512 | 31028 ft | 466 kts | 200° |
| 2026-05-05 04:46 | 33.05506 | 9.69431 | 31026 ft | 467 kts | 200° |
| 2026-05-05 04:46 | 32.99245 | 9.67363 | 31036 ft | 467 kts | 200° |
| 2026-05-05 04:47 | 32.92997 | 9.65300 | 31036 ft | 467 kts | 200° |
| 2026-05-05 04:47 | 32.86754 | 9.63236 | 31036 ft | 467 kts | 200° |
| 2026-05-05 04:48 | 32.80505 | 9.61179 | 31036 ft | 468 kts | 200° |
| 2026-05-05 04:48 | 32.75278 | 9.59461 | 31036 ft | 468 kts | 200° |
| 2026-05-05 04:49 | 32.69002 | 9.57398 | 31036 ft | 468 kts | 200° |
| 2026-05-05 04:49 | 32.62721 | 9.55340 | 31036 ft | 468 kts | 200° |
| 2026-05-05 04:50 | 32.56423 | 9.53280 | 31036 ft | 469 kts | 200° |
| 2026-05-05 04:50 | 32.50135 | 9.51223 | 31026 ft | 469 kts | 200° |
| 2026-05-05 04:51 | 32.43847 | 9.49171 | 31027 ft | 469 kts | 199° |
| 2026-05-05 04:51 | 32.37515 | 9.47106 | 31028 ft | 470 kts | 199° |
| 2026-05-05 04:52 | 32.31249 | 9.45067 | 31203 ft | 467 kts | 199° |
| 2026-05-05 04:52 | 32.28111 | 9.44048 | 31453 ft | 465 kts | 200° |
| 2026-05-05 04:52 | 32.25029 | 9.43044 | 31685 ft | 463 kts | 200° |
| 2026-05-05 04:52 | 32.21914 | 9.42030 | 31888 ft | 462 kts | 200° |
| 2026-05-05 04:53 | 32.18799 | 9.41022 | 32051 ft | 462 kts | 200° |
| 2026-05-05 04:53 | 32.15701 | 9.40020 | 32216 ft | 461 kts | 200° |
| 2026-05-05 04:53 | 32.12622 | 9.39023 | 32386 ft | 460 kts | 200° |
| 2026-05-05 04:53 | 32.09533 | 9.38023 | 32596 ft | 458 kts | 200° |
| 2026-05-05 04:54 | 32.06476 | 9.37033 | 32737 ft | 458 kts | 200° |
| 2026-05-05 04:54 | 32.03383 | 9.36033 | 32871 ft | 458 kts | 200° |
| 2026-05-05 04:54 | 32.00337 | 9.35047 | 32994 ft | 457 kts | 200° |
| 2026-05-05 04:55 | 31.94169 | 9.33051 | 33029 ft | 461 kts | 200° |
| 2026-05-05 04:55 | 31.87988 | 9.31060 | 33026 ft | 460 kts | 200° |
| 2026-05-05 04:56 | 31.81828 | 9.29087 | 33019 ft | 460 kts | 200° |
| 2026-05-05 04:56 | 31.75659 | 9.27106 | 33015 ft | 460 kts | 200° |
| 2026-05-05 04:57 | 31.69657 | 9.24657 | 33016 ft | 450 kts | 212° |
| 2026-05-05 04:57 | 31.64209 | 9.21117 | 33026 ft | 448 kts | 215° |
| 2026-05-05 04:58 | 31.58818 | 9.17366 | 33027 ft | 448 kts | 216° |
| 2026-05-05 04:58 | 31.53475 | 9.13627 | 33031 ft | 448 kts | 216° |
| 2026-05-05 04:59 | 31.48124 | 9.09910 | 33027 ft | 448 kts | 216° |
| 2026-05-05 04:59 | 31.42771 | 9.06211 | 33022 ft | 448 kts | 216° |
| 2026-05-05 05:00 | 31.37381 | 9.02495 | 33017 ft | 448 kts | 216° |
| 2026-05-05 05:00 | 31.32005 | 8.98798 | 33016 ft | 448 kts | 216° |
| 2026-05-05 05:01 | 31.26645 | 8.95110 | 33017 ft | 448 kts | 216° |
| 2026-05-05 05:01 | 31.21283 | 8.91425 | 33018 ft | 447 kts | 216° |
| 2026-05-05 05:02 | 31.15930 | 8.87753 | 32996 ft | 448 kts | 216° |
| 2026-05-05 05:02 | 31.10550 | 8.84069 | 32979 ft | 448 kts | 216° |
| 2026-05-05 05:03 | 31.05175 | 8.80394 | 32976 ft | 448 kts | 216° |
| 2026-05-05 05:03 | 30.99812 | 8.76733 | 32979 ft | 448 kts | 216° |
| 2026-05-05 05:04 | 30.94414 | 8.73050 | 32988 ft | 448 kts | 216° |
| 2026-05-05 05:04 | 30.89055 | 8.69399 | 32977 ft | 448 kts | 216° |
| 2026-05-05 05:05 | 30.83663 | 8.65728 | 32977 ft | 448 kts | 216° |
| 2026-05-05 05:05 | 30.78295 | 8.62082 | 32970 ft | 448 kts | 216° |
| 2026-05-05 05:06 | 30.72871 | 8.58405 | 32969 ft | 448 kts | 217° |
| 2026-05-05 05:06 | 30.67489 | 8.54754 | 32973 ft | 449 kts | 217° |
| 2026-05-05 05:07 | 30.62106 | 8.51107 | 32976 ft | 449 kts | 217° |
| 2026-05-05 05:07 | 30.56689 | 8.47445 | 32970 ft | 448 kts | 217° |
| 2026-05-05 05:08 | 30.51306 | 8.43813 | 32964 ft | 448 kts | 217° |
| 2026-05-05 05:08 | 30.45920 | 8.40182 | 32960 ft | 449 kts | 217° |
| 2026-05-05 05:09 | 30.40549 | 8.36528 | 32958 ft | 449 kts | 217° |
| 2026-05-05 05:09 | 30.35144 | 8.32842 | 32961 ft | 449 kts | 217° |
| 2026-05-05 05:10 | 30.29775 | 8.29190 | 32964 ft | 449 kts | 217° |
| 2026-05-05 05:10 | 30.24388 | 8.25535 | 32969 ft | 449 kts | 217° |
| 2026-05-05 05:11 | 30.19000 | 8.21881 | 32955 ft | 449 kts | 217° |
| 2026-05-05 05:11 | 30.13608 | 8.18231 | 32963 ft | 450 kts | 217° |
| 2026-05-05 05:12 | 30.07881 | 8.15214 | 32954 ft | 464 kts | 202° |
| 2026-05-05 05:12 | 30.01334 | 8.14429 | 32956 ft | 483 kts | 181° |
| 2026-05-05 05:13 | 29.94644 | 8.15717 | 32952 ft | 492 kts | 175° |
| 2026-05-05 05:13 | 29.87935 | 8.17383 | 32954 ft | 494 kts | 174° |
| 2026-05-05 05:14 | 29.81244 | 8.19048 | 32955 ft | 494 kts | 174° |
| 2026-05-05 05:14 | 29.74540 | 8.20662 | 32955 ft | 492 kts | 175° |
| 2026-05-05 05:15 | 29.67828 | 8.22243 | 32968 ft | 493 kts | 174° |
| 2026-05-05 05:15 | 29.61093 | 8.23829 | 32962 ft | 493 kts | 174° |
| 2026-05-05 05:16 | 29.54364 | 8.25416 | 32962 ft | 493 kts | 174° |
| 2026-05-05 05:16 | 29.47657 | 8.26997 | 32963 ft | 493 kts | 174° |
| 2026-05-05 05:17 | 29.40946 | 8.28576 | 32960 ft | 493 kts | 174° |
| 2026-05-05 05:17 | 29.34213 | 8.30157 | 32962 ft | 493 kts | 174° |
| 2026-05-05 05:18 | 29.27492 | 8.31736 | 32961 ft | 494 kts | 174° |
| 2026-05-05 05:18 | 29.20756 | 8.33311 | 32961 ft | 494 kts | 174° |
| 2026-05-05 05:19 | 29.14027 | 8.34880 | 32959 ft | 494 kts | 174° |
| 2026-05-05 05:19 | 29.07306 | 8.36448 | 32960 ft | 495 kts | 174° |
| 2026-05-05 05:20 | 29.00542 | 8.38029 | 32958 ft | 494 kts | 174° |
| 2026-05-05 05:20 | 28.93806 | 8.39596 | 32964 ft | 494 kts | 174° |
| 2026-05-05 05:21 | 28.87073 | 8.41161 | 32958 ft | 495 kts | 174° |
| 2026-05-05 05:21 | 28.80333 | 8.42729 | 32957 ft | 495 kts | 174° |
| 2026-05-05 05:22 | 28.73559 | 8.44301 | 32952 ft | 495 kts | 174° |
| 2026-05-05 05:22 | 28.66822 | 8.45860 | 32953 ft | 495 kts | 174° |
| 2026-05-05 05:23 | 28.60062 | 8.47425 | 32953 ft | 496 kts | 174° |
| 2026-05-05 05:23 | 28.53320 | 8.48981 | 32954 ft | 496 kts | 174° |
| 2026-05-05 05:24 | 28.46541 | 8.50544 | 32954 ft | 496 kts | 174° |
| 2026-05-05 05:24 | 28.39746 | 8.52108 | 32954 ft | 496 kts | 174° |
| 2026-05-05 05:25 | 28.33005 | 8.53660 | 32951 ft | 495 kts | 174° |
| 2026-05-05 05:25 | 28.26266 | 8.55210 | 32953 ft | 496 kts | 174° |
| 2026-05-05 05:26 | 28.19497 | 8.56765 | 32954 ft | 496 kts | 174° |
| 2026-05-05 05:26 | 28.12740 | 8.58314 | 32954 ft | 496 kts | 174° |
| 2026-05-05 05:27 | 28.05968 | 8.59870 | 32952 ft | 496 kts | 174° |
| 2026-05-05 05:27 | 27.95835 | 8.62219 | 32954 ft | 496 kts | 174° |
| 2026-05-05 05:28 | 27.89028 | 8.63796 | 32953 ft | 497 kts | 174° |
| 2026-05-05 05:28 | 27.82247 | 8.65362 | 32954 ft | 497 kts | 174° |
| 2026-05-05 05:29 | 27.75473 | 8.66923 | 32954 ft | 497 kts | 174° |
| 2026-05-05 05:29 | 27.68744 | 8.68473 | 32954 ft | 497 kts | 174° |
| 2026-05-05 05:30 | 27.61945 | 8.70037 | 32948 ft | 497 kts | 174° |
| 2026-05-05 05:30 | 27.55196 | 8.71588 | 32944 ft | 497 kts | 174° |
| 2026-05-05 05:31 | 27.48390 | 8.73149 | 32944 ft | 497 kts | 174° |
| 2026-05-05 05:31 | 27.41612 | 8.74702 | 32944 ft | 497 kts | 174° |
| 2026-05-05 05:32 | 27.34863 | 8.76251 | 32943 ft | 497 kts | 174° |
| 2026-05-05 05:32 | 27.28054 | 8.77806 | 32934 ft | 497 kts | 174° |
| 2026-05-05 05:33 | 27.21308 | 8.79341 | 32935 ft | 497 kts | 174° |
| 2026-05-05 05:33 | 27.14539 | 8.80885 | 32933 ft | 497 kts | 174° |
| 2026-05-05 05:34 | 27.07757 | 8.82431 | 32930 ft | 497 kts | 174° |
| 2026-05-05 05:34 | 27.02114 | 8.83718 | 32924 ft | 497 kts | 174° |
| 2026-05-05 05:35 | 26.95324 | 8.85269 | 32924 ft | 497 kts | 174° |
| 2026-05-05 05:35 | 26.88571 | 8.86819 | 32928 ft | 496 kts | 174° |
| 2026-05-05 05:36 | 26.81778 | 8.88373 | 32924 ft | 496 kts | 174° |
| 2026-05-05 05:36 | 26.75056 | 8.89911 | 32927 ft | 496 kts | 174° |
| 2026-05-05 05:37 | 26.68287 | 8.91458 | 32920 ft | 495 kts | 174° |
| 2026-05-05 05:37 | 26.61526 | 8.92999 | 32916 ft | 496 kts | 174° |
| 2026-05-05 05:38 | 26.54768 | 8.94534 | 32920 ft | 496 kts | 174° |
| 2026-05-05 05:38 | 26.48023 | 8.96067 | 32916 ft | 496 kts | 174° |
| 2026-05-05 05:39 | 26.41248 | 8.97611 | 32924 ft | 496 kts | 174° |
| 2026-05-05 05:39 | 26.34473 | 8.99149 | 32926 ft | 495 kts | 174° |
| 2026-05-05 05:40 | 26.27726 | 9.00675 | 32924 ft | 496 kts | 174° |
| 2026-05-05 05:40 | 26.20967 | 9.02206 | 32925 ft | 496 kts | 174° |
| 2026-05-05 05:41 | 26.14206 | 9.03737 | 32925 ft | 496 kts | 174° |
| 2026-05-05 05:41 | 26.07469 | 9.05259 | 32934 ft | 496 kts | 174° |
| 2026-05-05 05:42 | 26.00726 | 9.06780 | 32935 ft | 496 kts | 174° |
| 2026-05-05 05:42 | 25.93957 | 9.08308 | 32939 ft | 496 kts | 174° |
| 2026-05-05 05:43 | 25.87193 | 9.09848 | 32943 ft | 495 kts | 174° |
| 2026-05-05 05:43 | 25.80453 | 9.11382 | 32940 ft | 496 kts | 174° |
| 2026-05-05 05:44 | 25.73715 | 9.12910 | 32953 ft | 495 kts | 174° |
| 2026-05-05 05:44 | 25.66914 | 9.14448 | 32953 ft | 495 kts | 174° |
| 2026-05-05 05:45 | 25.60173 | 9.15973 | 32962 ft | 496 kts | 174° |
| 2026-05-05 05:45 | 25.53429 | 9.17494 | 32964 ft | 495 kts | 174° |
| 2026-05-05 05:46 | 25.46671 | 9.19017 | 32976 ft | 496 kts | 174° |
| 2026-05-05 05:46 | 25.39907 | 9.20540 | 32973 ft | 496 kts | 174° |
| 2026-05-05 05:47 | 25.33164 | 9.22058 | 32983 ft | 496 kts | 174° |
| 2026-05-05 05:47 | 25.26421 | 9.23574 | 32988 ft | 496 kts | 174° |
| 2026-05-05 05:48 | 25.19625 | 9.25100 | 32992 ft | 496 kts | 174° |
| 2026-05-05 05:48 | 25.12875 | 9.26612 | 32999 ft | 496 kts | 174° |
| 2026-05-05 05:49 | 25.06120 | 9.28120 | 33001 ft | 496 kts | 174° |
| 2026-05-05 05:49 | 24.99357 | 9.29637 | 33007 ft | 497 kts | 174° |
| 2026-05-05 05:50 | 24.92589 | 9.31151 | 33006 ft | 496 kts | 174° |
| 2026-05-05 05:50 | 24.85809 | 9.32665 | 33011 ft | 496 kts | 174° |
| 2026-05-05 05:51 | 24.79055 | 9.34176 | 33012 ft | 496 kts | 174° |
| 2026-05-05 05:51 | 24.72280 | 9.35683 | 33018 ft | 496 kts | 174° |
| 2026-05-05 05:52 | 24.65531 | 9.37183 | 33019 ft | 496 kts | 175° |
| 2026-05-05 05:52 | 24.58758 | 9.38689 | 33019 ft | 497 kts | 174° |
| 2026-05-05 05:53 | 24.51957 | 9.40197 | 33018 ft | 497 kts | 175° |
| 2026-05-05 05:53 | 24.45189 | 9.41697 | 33019 ft | 496 kts | 175° |
| 2026-05-05 05:54 | 24.38439 | 9.43192 | 33019 ft | 497 kts | 175° |
| 2026-05-05 05:54 | 24.31628 | 9.44729 | 33015 ft | 499 kts | 172° |
| 2026-05-05 05:55 | 24.28327 | 9.45925 | 33017 ft | 506 kts | 161° |
| 2026-05-05 05:55 | 24.25187 | 9.47633 | 33017 ft | 510 kts | 156° |
| 2026-05-05 05:55 | 24.18995 | 9.51485 | 33018 ft | 513 kts | 154° |
| 2026-05-05 05:56 | 24.12820 | 9.55504 | 33018 ft | 514 kts | 154° |
| 2026-05-05 05:56 | 24.06670 | 9.59484 | 33018 ft | 513 kts | 154° |
| 2026-05-05 05:57 | 24.00521 | 9.63428 | 33016 ft | 513 kts | 154° |
| 2026-05-05 05:57 | 23.94380 | 9.67350 | 33019 ft | 513 kts | 154° |
| 2026-05-05 05:58 | 23.88191 | 9.71294 | 33017 ft | 513 kts | 155° |
| 2026-05-05 05:58 | 23.82044 | 9.75204 | 33022 ft | 513 kts | 155° |
| 2026-05-05 05:59 | 23.75880 | 9.79126 | 33026 ft | 513 kts | 155° |
| 2026-05-05 05:59 | 23.69730 | 9.83038 | 33027 ft | 513 kts | 155° |
| 2026-05-05 06:00 | 23.63572 | 9.86944 | 33026 ft | 513 kts | 155° |
| 2026-05-05 06:00 | 23.57382 | 9.90865 | 33028 ft | 512 kts | 154° |
| 2026-05-05 06:01 | 23.51246 | 9.94755 | 33027 ft | 512 kts | 154° |
| 2026-05-05 06:01 | 23.45112 | 9.98639 | 33026 ft | 511 kts | 154° |
| 2026-05-05 06:02 | 23.38930 | 10.02545 | 33030 ft | 511 kts | 154° |
| 2026-05-05 06:02 | 23.32786 | 10.06426 | 33025 ft | 511 kts | 154° |
| 2026-05-05 06:03 | 23.26645 | 10.10301 | 33027 ft | 511 kts | 154° |
| 2026-05-05 06:03 | 23.20502 | 10.14171 | 33025 ft | 511 kts | 154° |
| 2026-05-05 06:04 | 23.14355 | 10.18039 | 33026 ft | 510 kts | 154° |
| 2026-05-05 06:04 | 23.08195 | 10.21911 | 33027 ft | 510 kts | 154° |
| 2026-05-05 06:05 | 23.02057 | 10.25766 | 33027 ft | 509 kts | 154° |
| 2026-05-05 06:05 | 22.95960 | 10.29594 | 33028 ft | 509 kts | 154° |
| 2026-05-05 06:06 | 22.89816 | 10.33445 | 33026 ft | 508 kts | 154° |
| 2026-05-05 06:06 | 22.83719 | 10.37261 | 33013 ft | 508 kts | 154° |
| 2026-05-05 06:07 | 22.77604 | 10.41085 | 33007 ft | 507 kts | 154° |
| 2026-05-05 06:07 | 22.71488 | 10.44908 | 33009 ft | 507 kts | 154° |
| 2026-05-05 06:08 | 22.65345 | 10.48738 | 33010 ft | 508 kts | 154° |
| 2026-05-05 06:08 | 22.59255 | 10.52612 | 33009 ft | 509 kts | 152° |
| 2026-05-05 06:09 | 22.53268 | 10.56666 | 33008 ft | 509 kts | 151° |
| 2026-05-05 06:09 | 22.47257 | 10.60754 | 33009 ft | 508 kts | 151° |
| 2026-05-05 06:10 | 22.41295 | 10.64767 | 33008 ft | 508 kts | 152° |
| 2026-05-05 06:10 | 22.35258 | 10.68806 | 33003 ft | 508 kts | 152° |
| 2026-05-05 06:11 | 22.29250 | 10.72815 | 33000 ft | 508 kts | 152° |
| 2026-05-05 06:11 | 22.23259 | 10.76810 | 32999 ft | 508 kts | 152° |
| 2026-05-05 06:12 | 22.17265 | 10.80802 | 33001 ft | 508 kts | 152° |
| 2026-05-05 06:12 | 22.11259 | 10.84801 | 32999 ft | 508 kts | 152° |
| 2026-05-05 06:13 | 22.05225 | 10.88817 | 32999 ft | 508 kts | 152° |
| 2026-05-05 06:13 | 21.99212 | 10.92813 | 32996 ft | 508 kts | 152° |
| 2026-05-05 06:14 | 21.93224 | 10.96788 | 32997 ft | 506 kts | 152° |
| 2026-05-05 06:14 | 21.87235 | 11.00760 | 32996 ft | 504 kts | 152° |
| 2026-05-05 06:15 | 21.81279 | 11.04710 | 32996 ft | 504 kts | 152° |
| 2026-05-05 06:15 | 21.75302 | 11.08666 | 32981 ft | 504 kts | 152° |
| 2026-05-05 06:16 | 21.69335 | 11.12607 | 32997 ft | 504 kts | 152° |
| 2026-05-05 06:16 | 21.63344 | 11.16566 | 32978 ft | 504 kts | 152° |
| 2026-05-05 06:17 | 21.57369 | 11.20507 | 32998 ft | 504 kts | 152° |
| 2026-05-05 06:17 | 21.51400 | 11.24439 | 32976 ft | 504 kts | 152° |
| 2026-05-05 06:18 | 21.45406 | 11.28390 | 32978 ft | 504 kts | 152° |
| 2026-05-05 06:18 | 21.39470 | 11.32295 | 32980 ft | 503 kts | 152° |
| 2026-05-05 06:19 | 21.33500 | 11.36222 | 32980 ft | 503 kts | 152° |
| 2026-05-05 06:19 | 21.27495 | 11.40164 | 32984 ft | 503 kts | 152° |
| 2026-05-05 06:20 | 21.21547 | 11.44070 | 32979 ft | 502 kts | 152° |
| 2026-05-05 06:20 | 21.15615 | 11.47958 | 32979 ft | 502 kts | 152° |
| 2026-05-05 06:21 | 21.09655 | 11.51863 | 32977 ft | 501 kts | 152° |
| 2026-05-05 06:21 | 21.03720 | 11.55745 | 32970 ft | 501 kts | 152° |
| 2026-05-05 06:22 | 20.98753 | 11.58992 | 32972 ft | 501 kts | 152° |
| 2026-05-05 06:22 | 20.92812 | 11.62871 | 33001 ft | 500 kts | 152° |
| 2026-05-05 06:23 | 20.86878 | 11.66743 | 32999 ft | 499 kts | 152° |
| 2026-05-05 06:23 | 20.80932 | 11.70619 | 32999 ft | 499 kts | 152° |
| 2026-05-05 06:24 | 20.75012 | 11.74473 | 33000 ft | 498 kts | 152° |
| 2026-05-05 06:24 | 20.69107 | 11.78314 | 32999 ft | 498 kts | 152° |
| 2026-05-05 06:25 | 20.63183 | 11.82170 | 32999 ft | 497 kts | 152° |
| 2026-05-05 06:25 | 20.57307 | 11.85986 | 32996 ft | 496 kts | 152° |
| 2026-05-05 06:26 | 20.51407 | 11.89820 | 32979 ft | 495 kts | 152° |
| 2026-05-05 06:26 | 20.45536 | 11.93622 | 32998 ft | 495 kts | 152° |
| 2026-05-05 06:27 | 20.36689 | 11.99344 | 32997 ft | 495 kts | 152° |
| 2026-05-05 06:28 | 20.30839 | 12.03126 | 32997 ft | 495 kts | 152° |
| 2026-05-05 06:28 | 20.24966 | 12.06921 | 32981 ft | 494 kts | 152° |
| 2026-05-05 06:29 | 20.19067 | 12.10728 | 32996 ft | 494 kts | 152° |
| 2026-05-05 06:29 | 20.13170 | 12.14532 | 32982 ft | 494 kts | 152° |
| 2026-05-05 06:30 | 20.07312 | 12.18309 | 32980 ft | 494 kts | 152° |
| 2026-05-05 06:30 | 20.01432 | 12.22090 | 32980 ft | 493 kts | 152° |
| 2026-05-05 06:31 | 19.95580 | 12.25853 | 32980 ft | 493 kts | 152° |
| 2026-05-05 06:31 | 19.89710 | 12.29626 | 32980 ft | 494 kts | 152° |
| 2026-05-05 06:32 | 19.83801 | 12.33421 | 32981 ft | 494 kts | 152° |
| 2026-05-05 06:32 | 19.77922 | 12.37192 | 32982 ft | 494 kts | 152° |
| 2026-05-05 06:33 | 19.72041 | 12.40961 | 32975 ft | 494 kts | 152° |
| 2026-05-05 06:33 | 19.66141 | 12.44737 | 32969 ft | 494 kts | 152° |
| 2026-05-05 06:34 | 19.60272 | 12.48493 | 32970 ft | 495 kts | 152° |
| 2026-05-05 06:34 | 19.54358 | 12.52274 | 32970 ft | 495 kts | 152° |
| 2026-05-05 06:35 | 19.48501 | 12.56014 | 32970 ft | 495 kts | 152° |
| 2026-05-05 06:35 | 19.42579 | 12.59794 | 32976 ft | 495 kts | 152° |
| 2026-05-05 06:36 | 19.36665 | 12.63566 | 32969 ft | 495 kts | 152° |
| 2026-05-05 06:36 | 19.30760 | 12.67326 | 32967 ft | 495 kts | 152° |
| 2026-05-05 06:37 | 19.24867 | 12.71079 | 32963 ft | 496 kts | 152° |
| 2026-05-05 06:37 | 19.18962 | 12.74834 | 32966 ft | 496 kts | 152° |
| 2026-05-05 06:38 | 19.13052 | 12.78586 | 32960 ft | 496 kts | 152° |
| 2026-05-05 06:38 | 19.07120 | 12.82353 | 32962 ft | 497 kts | 152° |
| 2026-05-05 06:39 | 19.01152 | 12.86024 | 32956 ft | 495 kts | 158° |
| 2026-05-05 06:39 | 18.94642 | 12.88053 | 32951 ft | 483 kts | 178° |
| 2026-05-05 06:40 | 18.87952 | 12.88493 | 32942 ft | 482 kts | 182° |
| 2026-05-05 06:40 | 18.81266 | 12.88672 | 32945 ft | 482 kts | 182° |
| 2026-05-05 06:41 | 18.74516 | 12.88845 | 32943 ft | 483 kts | 182° |
| 2026-05-05 06:41 | 18.67822 | 12.89048 | 32942 ft | 483 kts | 182° |
| 2026-05-05 06:42 | 18.61094 | 12.89269 | 32944 ft | 483 kts | 182° |
| 2026-05-05 06:42 | 18.54382 | 12.89492 | 32943 ft | 484 kts | 182° |
| 2026-05-05 06:43 | 18.47659 | 12.89718 | 32943 ft | 484 kts | 182° |
| 2026-05-05 06:43 | 18.40894 | 12.89944 | 32937 ft | 484 kts | 182° |
| 2026-05-05 06:44 | 18.34190 | 12.90163 | 32935 ft | 484 kts | 182° |
| 2026-05-05 06:44 | 18.27418 | 12.90382 | 32933 ft | 485 kts | 182° |
| 2026-05-05 06:45 | 18.20691 | 12.90602 | 32934 ft | 485 kts | 182° |
| 2026-05-05 06:45 | 18.13969 | 12.90824 | 32934 ft | 485 kts | 182° |
| 2026-05-05 06:46 | 18.07198 | 12.91047 | 32933 ft | 485 kts | 182° |
| 2026-05-05 06:46 | 18.00478 | 12.91267 | 32934 ft | 485 kts | 182° |
| 2026-05-05 06:47 | 17.93758 | 12.91488 | 32935 ft | 485 kts | 182° |
| 2026-05-05 06:47 | 17.86993 | 12.91709 | 32924 ft | 486 kts | 182° |
| 2026-05-05 06:48 | 17.80232 | 12.91929 | 32926 ft | 486 kts | 182° |
| 2026-05-05 06:48 | 17.73439 | 12.92152 | 32924 ft | 486 kts | 182° |
| 2026-05-05 06:49 | 17.66682 | 12.92372 | 32927 ft | 487 kts | 182° |
| 2026-05-05 06:49 | 17.59913 | 12.92591 | 32925 ft | 487 kts | 182° |
| 2026-05-05 06:50 | 17.53145 | 12.92810 | 32924 ft | 487 kts | 182° |
| 2026-05-05 06:50 | 17.46367 | 12.93032 | 32927 ft | 487 kts | 182° |
| 2026-05-05 06:51 | 17.39614 | 12.93250 | 32925 ft | 487 kts | 182° |
| 2026-05-05 06:51 | 17.32849 | 12.93470 | 32912 ft | 487 kts | 182° |
| 2026-05-05 06:52 | 17.26068 | 12.93691 | 32918 ft | 487 kts | 182° |
| 2026-05-05 06:52 | 17.19277 | 12.93912 | 32916 ft | 487 kts | 182° |
| 2026-05-05 06:53 | 17.12519 | 12.94129 | 32919 ft | 487 kts | 182° |
| 2026-05-05 06:53 | 17.05731 | 12.94349 | 32921 ft | 487 kts | 182° |
| 2026-05-05 06:54 | 16.98969 | 12.94567 | 32908 ft | 487 kts | 182° |
| 2026-05-05 06:54 | 16.92211 | 12.94786 | 32899 ft | 487 kts | 182° |
| 2026-05-05 06:55 | 16.85419 | 12.95004 | 32894 ft | 487 kts | 182° |
| 2026-05-05 06:55 | 16.78638 | 12.95222 | 32895 ft | 487 kts | 182° |
| 2026-05-05 06:56 | 16.71871 | 12.95443 | 32890 ft | 487 kts | 182° |
| 2026-05-05 06:56 | 16.65105 | 12.95662 | 32896 ft | 487 kts | 182° |
| 2026-05-05 06:57 | 16.58341 | 12.95882 | 32890 ft | 487 kts | 182° |
| 2026-05-05 06:57 | 16.51563 | 12.96101 | 32894 ft | 488 kts | 182° |
| 2026-05-05 06:58 | 16.44758 | 12.96318 | 32886 ft | 487 kts | 182° |
| 2026-05-05 06:58 | 16.37984 | 12.96534 | 32887 ft | 488 kts | 182° |
| 2026-05-05 06:59 | 16.31212 | 12.96755 | 32885 ft | 488 kts | 182° |
| 2026-05-05 06:59 | 16.24403 | 12.96977 | 32890 ft | 488 kts | 182° |
| 2026-05-05 07:00 | 16.17623 | 12.97197 | 32886 ft | 488 kts | 182° |
| 2026-05-05 07:00 | 16.10868 | 12.97412 | 32884 ft | 488 kts | 182° |
| 2026-05-05 07:01 | 16.04046 | 12.97631 | 32885 ft | 488 kts | 182° |
| 2026-05-05 07:01 | 15.97266 | 12.97848 | 32891 ft | 488 kts | 182° |
| 2026-05-05 07:02 | 15.90503 | 12.98062 | 32888 ft | 488 kts | 182° |
| 2026-05-05 07:02 | 15.83723 | 12.98276 | 32898 ft | 487 kts | 182° |
| 2026-05-05 07:03 | 15.76941 | 12.98492 | 32886 ft | 487 kts | 182° |
| 2026-05-05 07:03 | 15.70129 | 12.98710 | 32885 ft | 487 kts | 182° |
| 2026-05-05 07:04 | 15.63375 | 12.98925 | 32886 ft | 487 kts | 182° |
| 2026-05-05 07:04 | 15.56609 | 12.99139 | 32885 ft | 487 kts | 182° |
| 2026-05-05 07:05 | 15.49857 | 12.99353 | 32888 ft | 487 kts | 182° |
| 2026-05-05 07:05 | 15.43072 | 12.99570 | 32886 ft | 486 kts | 182° |
| 2026-05-05 07:06 | 15.36318 | 12.99784 | 32878 ft | 486 kts | 182° |
| 2026-05-05 07:06 | 15.29582 | 12.99999 | 32879 ft | 486 kts | 182° |
| 2026-05-05 07:07 | 15.23938 | 13.00179 | 32879 ft | 486 kts | 182° |
| 2026-05-05 07:07 | 15.17159 | 13.00394 | 32879 ft | 486 kts | 182° |
| 2026-05-05 07:08 | 15.10418 | 13.00607 | 32879 ft | 486 kts | 182° |
| 2026-05-05 07:08 | 15.03681 | 13.00820 | 32879 ft | 485 kts | 182° |
| 2026-05-05 07:09 | 14.96943 | 13.01029 | 32878 ft | 485 kts | 182° |
| 2026-05-05 07:09 | 14.90165 | 13.01243 | 32878 ft | 485 kts | 182° |
| 2026-05-05 07:10 | 14.83417 | 13.01458 | 32877 ft | 485 kts | 182° |
| 2026-05-05 07:10 | 14.76694 | 13.01672 | 32880 ft | 484 kts | 182° |
| 2026-05-05 07:11 | 14.69972 | 13.01882 | 32880 ft | 484 kts | 181° |
| 2026-05-05 07:11 | 14.63213 | 13.02096 | 32879 ft | 484 kts | 181° |
| 2026-05-05 07:12 | 14.56514 | 13.02308 | 32870 ft | 484 kts | 182° |
| 2026-05-05 07:12 | 14.49767 | 13.02520 | 32869 ft | 483 kts | 182° |
| 2026-05-05 07:13 | 14.43054 | 13.02727 | 32870 ft | 483 kts | 181° |
| 2026-05-05 07:13 | 14.36313 | 13.02939 | 32870 ft | 483 kts | 181° |
| 2026-05-05 07:14 | 14.29627 | 13.03150 | 32869 ft | 483 kts | 181° |
| 2026-05-05 07:14 | 14.22892 | 13.03358 | 32869 ft | 482 kts | 182° |
| 2026-05-05 07:15 | 14.16195 | 13.03517 | 32870 ft | 482 kts | 182° |
| 2026-05-05 07:15 | 14.09480 | 13.03662 | 32870 ft | 483 kts | 182° |
| 2026-05-05 07:16 | 14.02770 | 13.03811 | 32869 ft | 482 kts | 182° |
| 2026-05-05 07:16 | 13.96079 | 13.03965 | 32870 ft | 482 kts | 182° |
| 2026-05-05 07:17 | 13.89380 | 13.04118 | 32870 ft | 482 kts | 182° |
| 2026-05-05 07:17 | 13.82688 | 13.04274 | 32860 ft | 482 kts | 182° |
| 2026-05-05 07:18 | 13.75987 | 13.04432 | 32862 ft | 482 kts | 181° |
| 2026-05-05 07:18 | 13.69252 | 13.04586 | 32863 ft | 481 kts | 181° |
| 2026-05-05 07:19 | 13.62559 | 13.04740 | 32859 ft | 483 kts | 181° |
| 2026-05-05 07:19 | 13.55863 | 13.04889 | 32861 ft | 482 kts | 181° |
| 2026-05-05 07:20 | 13.49173 | 13.05070 | 32859 ft | 482 kts | 181° |
| 2026-05-05 07:20 | 13.42474 | 13.05275 | 32863 ft | 482 kts | 181° |
| 2026-05-05 07:21 | 13.35759 | 13.05479 | 32858 ft | 482 kts | 181° |
| 2026-05-05 07:21 | 13.29049 | 13.05676 | 32858 ft | 482 kts | 181° |
| 2026-05-05 07:22 | 13.22339 | 13.05872 | 32864 ft | 482 kts | 181° |
| 2026-05-05 07:22 | 13.15613 | 13.06067 | 32864 ft | 481 kts | 181° |
| 2026-05-05 07:23 | 13.08912 | 13.06263 | 32878 ft | 482 kts | 181° |
| 2026-05-05 07:23 | 13.02213 | 13.06459 | 32879 ft | 482 kts | 181° |
| 2026-05-05 07:24 | 12.95507 | 13.06657 | 32879 ft | 482 kts | 181° |
| 2026-05-05 07:24 | 12.88776 | 13.06854 | 32878 ft | 482 kts | 181° |
| 2026-05-05 07:25 | 12.82078 | 13.07049 | 32880 ft | 482 kts | 181° |
| 2026-05-05 07:25 | 12.75397 | 13.07244 | 32879 ft | 483 kts | 181° |
| 2026-05-05 07:26 | 12.68653 | 13.07442 | 32880 ft | 483 kts | 181° |
| 2026-05-05 07:26 | 12.61958 | 13.07636 | 32880 ft | 483 kts | 181° |
| 2026-05-05 07:27 | 12.55212 | 13.07832 | 32879 ft | 483 kts | 181° |
| 2026-05-05 07:27 | 12.48521 | 13.08025 | 32880 ft | 483 kts | 180° |
| 2026-05-05 07:28 | 12.41775 | 13.08223 | 32880 ft | 483 kts | 180° |
| 2026-05-05 07:28 | 12.35067 | 13.08420 | 32880 ft | 483 kts | 180° |
| 2026-05-05 07:29 | 12.28370 | 13.08614 | 32878 ft | 483 kts | 180° |
| 2026-05-05 07:29 | 12.21667 | 13.08806 | 32879 ft | 483 kts | 180° |
| 2026-05-05 07:30 | 12.14948 | 13.08999 | 32878 ft | 483 kts | 180° |
| 2026-05-05 07:30 | 12.04885 | 13.09287 | 32901 ft | 483 kts | 180° |
| 2026-05-05 07:31 | 11.98158 | 13.09482 | 32901 ft | 483 kts | 180° |
| 2026-05-05 07:31 | 11.91437 | 13.09676 | 32901 ft | 483 kts | 180° |
| 2026-05-05 07:32 | 11.84787 | 13.10587 | 32911 ft | 485 kts | 167° |
| 2026-05-05 07:32 | 11.78254 | 13.12490 | 32903 ft | 486 kts | 164° |
| 2026-05-05 07:33 | 11.71793 | 13.14536 | 32907 ft | 487 kts | 164° |
| 2026-05-05 07:33 | 11.65324 | 13.16587 | 32902 ft | 487 kts | 164° |
| 2026-05-05 07:34 | 11.58855 | 13.18614 | 32908 ft | 487 kts | 164° |
| 2026-05-05 07:34 | 11.52360 | 13.20641 | 32907 ft | 487 kts | 164° |
| 2026-05-05 07:35 | 11.45882 | 13.22662 | 32913 ft | 487 kts | 165° |
| 2026-05-05 07:35 | 11.39424 | 13.24669 | 32911 ft | 486 kts | 165° |
| 2026-05-05 07:36 | 11.32955 | 13.26685 | 32909 ft | 487 kts | 165° |
| 2026-05-05 07:36 | 11.26448 | 13.28712 | 32914 ft | 487 kts | 164° |
| 2026-05-05 07:37 | 11.20008 | 13.30718 | 32919 ft | 487 kts | 165° |
| 2026-05-05 07:37 | 11.13490 | 13.32744 | 32918 ft | 487 kts | 165° |
| 2026-05-05 07:38 | 11.07049 | 13.34747 | 32913 ft | 486 kts | 164° |
| 2026-05-05 07:38 | 11.00547 | 13.36767 | 32916 ft | 486 kts | 164° |
| 2026-05-05 07:39 | 10.94099 | 13.38771 | 32913 ft | 486 kts | 164° |
| 2026-05-05 07:39 | 10.87653 | 13.40777 | 32923 ft | 486 kts | 164° |
| 2026-05-05 07:40 | 10.81169 | 13.42789 | 32929 ft | 485 kts | 165° |
| 2026-05-05 07:40 | 10.74716 | 13.44789 | 32924 ft | 485 kts | 165° |
| 2026-05-05 07:41 | 10.68295 | 13.46780 | 32934 ft | 485 kts | 165° |
| 2026-05-05 07:41 | 10.61791 | 13.48792 | 32933 ft | 485 kts | 165° |
| 2026-05-05 07:42 | 10.55353 | 13.50746 | 32933 ft | 485 kts | 165° |
| 2026-05-05 07:42 | 10.48855 | 13.52609 | 32941 ft | 484 kts | 166° |
| 2026-05-05 07:43 | 10.42392 | 13.54454 | 32944 ft | 484 kts | 166° |
| 2026-05-05 07:43 | 10.35932 | 13.56314 | 32943 ft | 484 kts | 166° |
| 2026-05-05 07:44 | 10.29454 | 13.58191 | 32944 ft | 483 kts | 166° |
| 2026-05-05 07:44 | 10.22999 | 13.60058 | 32943 ft | 483 kts | 166° |
| 2026-05-05 07:45 | 10.16500 | 13.61936 | 32952 ft | 483 kts | 166° |
| 2026-05-05 07:45 | 10.10057 | 13.63799 | 32953 ft | 483 kts | 166° |
| 2026-05-05 07:46 | 10.03606 | 13.65667 | 32961 ft | 482 kts | 166° |
| 2026-05-05 07:46 | 9.97174 | 13.67533 | 32961 ft | 482 kts | 166° |
| 2026-05-05 07:47 | 9.90694 | 13.69409 | 32964 ft | 482 kts | 166° |
| 2026-05-05 07:47 | 9.84248 | 13.71275 | 32969 ft | 482 kts | 166° |
| 2026-05-05 07:48 | 9.77795 | 13.73143 | 32975 ft | 482 kts | 166° |
| 2026-05-05 07:48 | 9.71351 | 13.75010 | 32985 ft | 482 kts | 166° |
| 2026-05-05 07:49 | 9.64903 | 13.76878 | 32976 ft | 483 kts | 165° |
| 2026-05-05 07:49 | 9.59520 | 13.78434 | 32987 ft | 482 kts | 166° |
| 2026-05-05 07:50 | 9.53038 | 13.80306 | 32978 ft | 483 kts | 166° |
| 2026-05-05 07:50 | 9.46610 | 13.82175 | 33000 ft | 482 kts | 165° |
| 2026-05-05 07:51 | 9.40157 | 13.84075 | 33000 ft | 482 kts | 165° |
| 2026-05-05 07:51 | 9.33746 | 13.85970 | 33006 ft | 483 kts | 165° |
| 2026-05-05 07:52 | 9.27262 | 13.87854 | 33008 ft | 483 kts | 166° |
| 2026-05-05 07:52 | 9.20808 | 13.89702 | 33011 ft | 483 kts | 166° |
| 2026-05-05 07:53 | 9.14328 | 13.91566 | 33015 ft | 483 kts | 165° |
| 2026-05-05 07:53 | 9.07876 | 13.93428 | 33025 ft | 483 kts | 165° |
| 2026-05-05 07:54 | 9.01420 | 13.95292 | 33030 ft | 483 kts | 165° |
| 2026-05-05 07:54 | 8.94929 | 13.97164 | 33036 ft | 483 kts | 165° |
| 2026-05-05 07:55 | 8.88481 | 13.99020 | 33039 ft | 483 kts | 165° |
| 2026-05-05 07:55 | 8.82035 | 14.00878 | 33047 ft | 483 kts | 165° |
| 2026-05-05 07:56 | 8.75549 | 14.02745 | 33047 ft | 481 kts | 165° |
| 2026-05-05 07:56 | 8.69121 | 14.04594 | 33056 ft | 481 kts | 165° |
| 2026-05-05 07:57 | 8.62684 | 14.06448 | 33056 ft | 481 kts | 165° |
| 2026-05-05 07:57 | 8.56256 | 14.08297 | 33063 ft | 481 kts | 165° |
| 2026-05-05 07:58 | 8.49823 | 14.10146 | 33064 ft | 482 kts | 165° |
| 2026-05-05 07:58 | 8.43346 | 14.12007 | 33064 ft | 482 kts | 165° |
| 2026-05-05 07:59 | 8.37042 | 14.13815 | 33072 ft | 482 kts | 165° |
| 2026-05-05 07:59 | 8.30615 | 14.15661 | 33074 ft | 482 kts | 165° |
| 2026-05-05 08:00 | 8.24159 | 14.17517 | 33073 ft | 482 kts | 165° |
| 2026-05-05 08:00 | 8.17700 | 14.19366 | 33074 ft | 482 kts | 165° |
| 2026-05-05 08:01 | 8.11247 | 14.21214 | 33082 ft | 482 kts | 165° |
| 2026-05-05 08:01 | 8.04795 | 14.23063 | 33084 ft | 482 kts | 165° |
| 2026-05-05 08:02 | 7.98358 | 14.24911 | 33082 ft | 482 kts | 165° |
| 2026-05-05 08:02 | 7.91906 | 14.26764 | 33082 ft | 482 kts | 165° |
| 2026-05-05 08:03 | 7.85424 | 14.28618 | 33090 ft | 482 kts | 165° |
| 2026-05-05 08:03 | 7.78988 | 14.30458 | 33092 ft | 482 kts | 165° |
| 2026-05-05 08:04 | 7.72502 | 14.32318 | 33090 ft | 489 kts | 165° |
| 2026-05-05 08:04 | 7.65884 | 14.34214 | 33090 ft | 495 kts | 165° |
| 2026-05-05 08:05 | 7.59294 | 14.36102 | 33092 ft | 493 kts | 165° |
| 2026-05-05 08:05 | 7.52675 | 14.37995 | 33093 ft | 492 kts | 165° |
| 2026-05-05 08:06 | 7.46082 | 14.39880 | 33092 ft | 492 kts | 165° |
| 2026-05-05 08:06 | 7.39512 | 14.41759 | 33092 ft | 493 kts | 165° |
| 2026-05-05 08:07 | 7.32920 | 14.43644 | 33092 ft | 493 kts | 165° |
| 2026-05-05 08:07 | 7.26335 | 14.45526 | 33092 ft | 493 kts | 165° |
| 2026-05-05 08:08 | 7.19701 | 14.47419 | 33092 ft | 494 kts | 165° |
| 2026-05-05 08:08 | 7.13124 | 14.49299 | 33082 ft | 494 kts | 165° |
| 2026-05-05 08:09 | 7.06515 | 14.51185 | 33082 ft | 494 kts | 165° |
| 2026-05-05 08:09 | 6.99870 | 14.53079 | 33081 ft | 494 kts | 165° |
| 2026-05-05 08:10 | 6.93270 | 14.54961 | 33083 ft | 494 kts | 165° |
| 2026-05-05 08:10 | 6.86660 | 14.56849 | 33082 ft | 494 kts | 165° |
| 2026-05-05 08:11 | 6.80065 | 14.58730 | 33082 ft | 494 kts | 165° |
| 2026-05-05 08:11 | 6.73410 | 14.60625 | 33073 ft | 494 kts | 165° |
| 2026-05-05 08:12 | 6.66816 | 14.62504 | 33075 ft | 495 kts | 165° |
| 2026-05-05 08:12 | 6.60192 | 14.64393 | 33073 ft | 495 kts | 165° |
| 2026-05-05 08:13 | 6.53565 | 14.66282 | 33074 ft | 496 kts | 165° |
| 2026-05-05 08:13 | 6.46943 | 14.68168 | 33069 ft | 496 kts | 165° |
| 2026-05-05 08:14 | 6.40315 | 14.70054 | 33064 ft | 496 kts | 165° |
| 2026-05-05 08:14 | 6.33677 | 14.71938 | 33065 ft | 496 kts | 165° |
| 2026-05-05 08:15 | 6.27040 | 14.73826 | 33063 ft | 496 kts | 165° |
| 2026-05-05 08:15 | 6.20359 | 14.75727 | 33057 ft | 496 kts | 164° |
| 2026-05-05 08:16 | 6.13763 | 14.77603 | 33055 ft | 496 kts | 164° |
| 2026-05-05 08:16 | 6.07114 | 14.79492 | 33055 ft | 496 kts | 165° |
| 2026-05-05 08:17 | 6.00443 | 14.81386 | 33055 ft | 496 kts | 165° |
| 2026-05-05 08:17 | 5.93823 | 14.83269 | 33051 ft | 496 kts | 164° |
| 2026-05-05 08:18 | 5.87167 | 14.85163 | 33047 ft | 496 kts | 164° |
| 2026-05-05 08:18 | 5.80531 | 14.87045 | 33047 ft | 496 kts | 164° |
| 2026-05-05 08:19 | 5.73895 | 14.88930 | 33048 ft | 496 kts | 164° |
| 2026-05-05 08:19 | 5.67215 | 14.90824 | 33044 ft | 496 kts | 164° |
| 2026-05-05 08:20 | 5.60591 | 14.92704 | 33036 ft | 497 kts | 164° |
| 2026-05-05 08:20 | 5.53952 | 14.94591 | 33038 ft | 497 kts | 164° |
| 2026-05-05 08:21 | 5.47282 | 14.96483 | 33034 ft | 496 kts | 164° |
| 2026-05-05 08:21 | 5.40657 | 14.98360 | 33039 ft | 496 kts | 164° |
| 2026-05-05 08:22 | 5.34005 | 15.00246 | 33033 ft | 496 kts | 164° |
| 2026-05-05 08:22 | 5.27331 | 15.02137 | 33033 ft | 496 kts | 164° |
| 2026-05-05 08:23 | 5.20719 | 15.04015 | 33038 ft | 496 kts | 164° |
| 2026-05-05 08:23 | 5.14064 | 15.05899 | 33037 ft | 495 kts | 164° |
| 2026-05-05 08:24 | 5.07476 | 15.07761 | 33035 ft | 495 kts | 164° |
| 2026-05-05 08:24 | 5.00826 | 15.09645 | 33030 ft | 494 kts | 164° |
| 2026-05-05 08:25 | 4.94199 | 15.11522 | 33024 ft | 495 kts | 164° |
| 2026-05-05 08:25 | 4.87586 | 15.13398 | 33027 ft | 495 kts | 164° |
| 2026-05-05 08:26 | 4.80967 | 15.15269 | 33028 ft | 495 kts | 164° |
| 2026-05-05 08:26 | 4.74366 | 15.17134 | 33031 ft | 494 kts | 164° |
| 2026-05-05 08:27 | 4.67737 | 15.19009 | 33024 ft | 494 kts | 164° |
| 2026-05-05 08:27 | 4.61131 | 15.20879 | 33025 ft | 494 kts | 164° |
| 2026-05-05 08:28 | 4.54528 | 15.22748 | 33028 ft | 493 kts | 164° |
| 2026-05-05 08:28 | 4.47946 | 15.24606 | 33027 ft | 493 kts | 164° |
| 2026-05-05 08:29 | 4.41370 | 15.26463 | 33030 ft | 492 kts | 164° |
| 2026-05-05 08:30 | 4.31468 | 15.29260 | 33018 ft | 491 kts | 165° |
| 2026-05-05 08:30 | 4.24885 | 15.31120 | 33015 ft | 491 kts | 164° |
| 2026-05-05 08:31 | 4.18310 | 15.32982 | 33029 ft | 491 kts | 164° |
| 2026-05-05 08:31 | 4.11753 | 15.34833 | 33026 ft | 490 kts | 165° |
| 2026-05-05 08:32 | 4.05191 | 15.36668 | 33027 ft | 491 kts | 165° |
| 2026-05-05 08:32 | 3.98597 | 15.38513 | 33026 ft | 490 kts | 165° |
| 2026-05-05 08:33 | 3.92050 | 15.40343 | 33026 ft | 489 kts | 165° |
| 2026-05-05 08:33 | 3.85516 | 15.42176 | 33025 ft | 488 kts | 165° |
| 2026-05-05 08:34 | 3.80061 | 15.43706 | 33017 ft | 489 kts | 165° |
| 2026-05-05 08:34 | 3.73492 | 15.45547 | 33019 ft | 488 kts | 165° |
| 2026-05-05 08:35 | 3.66958 | 15.47375 | 33016 ft | 488 kts | 165° |
| 2026-05-05 08:35 | 3.60425 | 15.49204 | 33017 ft | 488 kts | 165° |
| 2026-05-05 08:36 | 3.53868 | 15.51041 | 33019 ft | 487 kts | 164° |
| 2026-05-05 08:36 | 3.47351 | 15.52861 | 33017 ft | 487 kts | 164° |
| 2026-05-05 08:37 | 3.40838 | 15.54685 | 33019 ft | 488 kts | 164° |
| 2026-05-05 08:37 | 3.34301 | 15.56518 | 33018 ft | 488 kts | 164° |
| 2026-05-05 08:38 | 3.27752 | 15.58353 | 33017 ft | 487 kts | 164° |
| 2026-05-05 08:38 | 3.21225 | 15.60178 | 33018 ft | 487 kts | 164° |
| 2026-05-05 08:39 | 3.14707 | 15.62004 | 33019 ft | 486 kts | 164° |
| 2026-05-05 08:39 | 3.08191 | 15.63827 | 33017 ft | 487 kts | 164° |
| 2026-05-05 08:40 | 3.01678 | 15.65648 | 33016 ft | 487 kts | 164° |
| 2026-05-05 08:40 | 2.95135 | 15.67479 | 33018 ft | 486 kts | 164° |
| 2026-05-05 08:41 | 2.88631 | 15.69299 | 33019 ft | 487 kts | 164° |
| 2026-05-05 08:41 | 2.82130 | 15.71118 | 33017 ft | 486 kts | 164° |
| 2026-05-05 08:42 | 2.75589 | 15.72956 | 33015 ft | 487 kts | 164° |
| 2026-05-05 08:42 | 2.69087 | 15.74789 | 33017 ft | 486 kts | 164° |
| 2026-05-05 08:43 | 2.62586 | 15.76630 | 33018 ft | 486 kts | 164° |
| 2026-05-05 08:43 | 2.56072 | 15.78473 | 33010 ft | 486 kts | 164° |
| 2026-05-05 08:44 | 2.49579 | 15.80308 | 33008 ft | 485 kts | 164° |
| 2026-05-05 08:44 | 2.43084 | 15.82137 | 33000 ft | 485 kts | 164° |
| 2026-05-05 08:45 | 2.36583 | 15.83969 | 32997 ft | 485 kts | 164° |
| 2026-05-05 08:45 | 2.30092 | 15.85801 | 33000 ft | 486 kts | 163° |
| 2026-05-05 08:46 | 2.23568 | 15.87644 | 32999 ft | 485 kts | 163° |
| 2026-05-05 08:46 | 2.17098 | 15.89472 | 33000 ft | 485 kts | 163° |
| 2026-05-05 08:47 | 2.10574 | 15.91310 | 32999 ft | 485 kts | 163° |
| 2026-05-05 08:47 | 2.04102 | 15.93135 | 33001 ft | 485 kts | 163° |
| 2026-05-05 08:48 | 1.97608 | 15.94970 | 32998 ft | 485 kts | 163° |
| 2026-05-05 08:48 | 1.91116 | 15.96803 | 32999 ft | 485 kts | 163° |
| 2026-05-05 08:49 | 1.84610 | 15.98638 | 32999 ft | 485 kts | 163° |
| 2026-05-05 08:49 | 1.78138 | 16.00459 | 32999 ft | 485 kts | 164° |
| 2026-05-05 08:50 | 1.71615 | 16.02296 | 32998 ft | 485 kts | 163° |
| 2026-05-05 08:50 | 1.65151 | 16.04124 | 32999 ft | 485 kts | 163° |
| 2026-05-05 08:51 | 1.58671 | 16.05955 | 32999 ft | 485 kts | 163° |
| 2026-05-05 08:51 | 1.52158 | 16.07794 | 32997 ft | 485 kts | 163° |
| 2026-05-05 08:52 | 1.45685 | 16.09620 | 33001 ft | 485 kts | 163° |
| 2026-05-05 08:52 | 1.39173 | 16.11453 | 32999 ft | 484 kts | 163° |
| 2026-05-05 08:53 | 1.32697 | 16.13276 | 32999 ft | 484 kts | 163° |
| 2026-05-05 08:53 | 1.26213 | 16.15102 | 32999 ft | 484 kts | 163° |
| 2026-05-05 08:54 | 1.19746 | 16.16924 | 33000 ft | 484 kts | 163° |
| 2026-05-05 08:54 | 1.13280 | 16.18750 | 32999 ft | 483 kts | 163° |
| 2026-05-05 08:55 | 1.06802 | 16.20578 | 33001 ft | 483 kts | 163° |
| 2026-05-05 08:55 | 1.00328 | 16.22402 | 32998 ft | 483 kts | 163° |
| 2026-05-05 08:56 | 0.93873 | 16.24218 | 32998 ft | 483 kts | 163° |
| 2026-05-05 08:56 | 0.87384 | 16.26046 | 32999 ft | 483 kts | 163° |
| 2026-05-05 08:57 | 0.80926 | 16.27866 | 32999 ft | 483 kts | 163° |
| 2026-05-05 08:57 | 0.74486 | 16.29682 | 32995 ft | 482 kts | 163° |
| 2026-05-05 08:58 | 0.68057 | 16.31494 | 32979 ft | 482 kts | 163° |
| 2026-05-05 08:58 | 0.61597 | 16.33314 | 32997 ft | 481 kts | 163° |
| 2026-05-05 08:59 | 0.55148 | 16.35132 | 32996 ft | 482 kts | 163° |
| 2026-05-05 08:59 | 0.48670 | 16.36960 | 32981 ft | 481 kts | 163° |
| 2026-05-05 09:00 | 0.42241 | 16.38769 | 33001 ft | 482 kts | 163° |
| 2026-05-05 09:00 | 0.35786 | 16.40588 | 32997 ft | 482 kts | 163° |
| 2026-05-05 09:01 | 0.29354 | 16.42400 | 32998 ft | 481 kts | 163° |
| 2026-05-05 09:01 | 0.22888 | 16.44223 | 32999 ft | 481 kts | 163° |
| 2026-05-05 09:02 | 0.16456 | 16.46035 | 32999 ft | 481 kts | 163° |
| 2026-05-05 09:02 | 0.10016 | 16.47847 | 32999 ft | 481 kts | 163° |
| 2026-05-05 09:03 | 0.03537 | 16.49673 | 33000 ft | 482 kts | 163° |
| 2026-05-05 09:03 | -0.02890 | 16.51484 | 33001 ft | 481 kts | 163° |
| 2026-05-05 09:04 | -0.09331 | 16.53299 | 33001 ft | 482 kts | 163° |
| 2026-05-05 09:04 | -0.15816 | 16.55125 | 33000 ft | 482 kts | 163° |
| 2026-05-05 09:05 | -0.22261 | 16.56941 | 32997 ft | 482 kts | 163° |
| 2026-05-05 09:05 | -0.28716 | 16.58765 | 32999 ft | 482 kts | 163° |
| 2026-05-05 09:06 | -0.35161 | 16.60578 | 32999 ft | 482 kts | 163° |
| 2026-05-05 09:06 | -0.41622 | 16.62395 | 33000 ft | 482 kts | 163° |
| 2026-05-05 09:07 | -0.48060 | 16.64211 | 32998 ft | 482 kts | 163° |
| 2026-05-05 09:07 | -0.54509 | 16.66025 | 33000 ft | 483 kts | 163° |
| 2026-05-05 09:08 | -0.61005 | 16.67851 | 33000 ft | 483 kts | 163° |
| 2026-05-05 09:08 | -0.67454 | 16.69656 | 33000 ft | 480 kts | 163° |
| 2026-05-05 09:09 | -0.73856 | 16.71445 | 33002 ft | 478 kts | 163° |
| 2026-05-05 09:09 | -0.80287 | 16.73242 | 32998 ft | 479 kts | 163° |
| 2026-05-05 09:10 | -0.86685 | 16.75031 | 33000 ft | 479 kts | 163° |
| 2026-05-05 09:10 | -0.93136 | 16.76834 | 32999 ft | 479 kts | 163° |
| 2026-05-05 09:11 | -0.99554 | 16.78632 | 32998 ft | 480 kts | 163° |
| 2026-05-05 09:11 | -1.05966 | 16.80430 | 33000 ft | 480 kts | 163° |
| 2026-05-05 09:12 | -1.12432 | 16.82239 | 33000 ft | 481 kts | 163° |
| 2026-05-05 09:12 | -1.18866 | 16.84039 | 33001 ft | 481 kts | 163° |
| 2026-05-05 09:13 | -1.25335 | 16.85844 | 32999 ft | 481 kts | 163° |
| 2026-05-05 09:13 | -1.31765 | 16.87616 | 32999 ft | 482 kts | 164° |
| 2026-05-05 09:14 | -1.38256 | 16.89397 | 33001 ft | 482 kts | 163° |
| 2026-05-05 09:14 | -1.44718 | 16.91173 | 32999 ft | 482 kts | 163° |
| 2026-05-05 09:15 | -1.51195 | 16.92960 | 32999 ft | 483 kts | 163° |
| 2026-05-05 09:15 | -1.57655 | 16.94743 | 33000 ft | 483 kts | 163° |
| 2026-05-05 09:16 | -1.64145 | 16.96534 | 32999 ft | 483 kts | 163° |
| 2026-05-05 09:16 | -1.70621 | 16.98321 | 33001 ft | 483 kts | 164° |
| 2026-05-05 09:17 | -1.77069 | 17.00098 | 32998 ft | 483 kts | 163° |
| 2026-05-05 09:17 | -1.83544 | 17.01884 | 33000 ft | 483 kts | 164° |
| 2026-05-05 09:18 | -1.88952 | 17.03375 | 32999 ft | 483 kts | 164° |
| 2026-05-05 09:18 | -1.96496 | 17.05472 | 32998 ft | 483 kts | 163° |
| 2026-05-05 09:19 | -2.01901 | 17.06982 | 32998 ft | 483 kts | 163° |
| 2026-05-05 09:19 | -2.08418 | 17.08804 | 33000 ft | 485 kts | 163° |
| 2026-05-05 09:20 | -2.14900 | 17.10614 | 32997 ft | 486 kts | 163° |
| 2026-05-05 09:20 | -2.21409 | 17.12431 | 33001 ft | 486 kts | 163° |
| 2026-05-05 09:21 | -2.27934 | 17.14254 | 33000 ft | 485 kts | 163° |
| 2026-05-05 09:21 | -2.34412 | 17.16060 | 33000 ft | 485 kts | 163° |
| 2026-05-05 09:22 | -2.40914 | 17.17876 | 33000 ft | 485 kts | 163° |
| 2026-05-05 09:22 | -2.47397 | 17.19685 | 33005 ft | 485 kts | 164° |
| 2026-05-05 09:23 | -2.53892 | 17.21492 | 33017 ft | 485 kts | 163° |
| 2026-05-05 09:23 | -2.60400 | 17.23313 | 33017 ft | 485 kts | 163° |
| 2026-05-05 09:24 | -2.66926 | 17.25140 | 33018 ft | 485 kts | 163° |
| 2026-05-05 09:24 | -2.73387 | 17.26946 | 33019 ft | 485 kts | 163° |
| 2026-05-05 09:25 | -2.79907 | 17.28765 | 33019 ft | 485 kts | 163° |
| 2026-05-05 09:25 | -2.86401 | 17.30581 | 33019 ft | 485 kts | 163° |
| 2026-05-05 09:26 | -2.92937 | 17.32409 | 33016 ft | 485 kts | 164° |
| 2026-05-05 09:26 | -2.99335 | 17.34195 | 33122 ft | 463 kts | 163° |
| 2026-05-05 09:26 | -3.02363 | 17.35041 | 33597 ft | 438 kts | 164° |
| 2026-05-05 09:27 | -3.05246 | 17.35823 | 33758 ft | 422 kts | 165° |
| 2026-05-05 09:27 | -3.08058 | 17.36557 | 33306 ft | 422 kts | 165° |
| 2026-05-05 09:27 | -3.10958 | 17.37294 | 32317 ft | 435 kts | 165° |
| 2026-05-05 09:27 | -3.13960 | 17.38045 | 31262 ft | 450 kts | 165° |
| 2026-05-05 09:28 | -3.16997 | 17.38795 | 30617 ft | 453 kts | 165° |
| 2026-05-05 09:28 | -3.19998 | 17.39540 | 30518 ft | 442 kts | 165° |
| 2026-05-05 09:28 | -3.22936 | 17.40283 | 30713 ft | 424 kts | 165° |
| 2026-05-05 09:28 | -3.25746 | 17.40994 | 30757 ft | 410 kts | 165° |
| 2026-05-05 09:29 | -3.28483 | 17.41705 | 30382 ft | 408 kts | 164° |
| 2026-05-05 09:29 | -3.31251 | 17.42486 | 29598 ft | 416 kts | 162° |
| 2026-05-05 09:29 | -3.34026 | 17.43351 | 28764 ft | 426 kts | 161° |
| 2026-05-05 09:29 | -3.36859 | 17.44321 | 28235 ft | 427 kts | 159° |
| 2026-05-05 09:30 | -3.39634 | 17.45342 | 28108 ft | 417 kts | 158° |
| 2026-05-05 09:30 | -3.42259 | 17.46363 | 28169 ft | 402 kts | 157° |
| 2026-05-05 09:30 | -3.44829 | 17.47389 | 28073 ft | 392 kts | 157° |
| 2026-05-05 09:30 | -3.47371 | 17.48401 | 27633 ft | 392 kts | 157° |
| 2026-05-05 09:31 | -3.49907 | 17.49431 | 26965 ft | 398 kts | 156° |
| 2026-05-05 09:31 | -3.52500 | 17.50500 | 26306 ft | 404 kts | 156° |
| 2026-05-05 09:31 | -3.55071 | 17.51559 | 25911 ft | 402 kts | 156° |
| 2026-05-05 09:31 | -3.57651 | 17.52605 | 25774 ft | 393 kts | 157° |
| 2026-05-05 09:32 | -3.60174 | 17.53603 | 25713 ft | 382 kts | 157° |
| 2026-05-05 09:32 | -3.62606 | 17.54559 | 25504 ft | 376 kts | 157° |
| 2026-05-05 09:32 | -3.65047 | 17.55516 | 25059 ft | 377 kts | 156° |
| 2026-05-05 09:32 | -3.67464 | 17.56529 | 24474 ft | 381 kts | 155° |
| 2026-05-05 09:33 | -3.69916 | 17.57617 | 23942 ft | 383 kts | 154° |
| 2026-05-05 09:33 | -3.72315 | 17.58686 | 23642 ft | 380 kts | 155° |
| 2026-05-05 09:33 | -3.74736 | 17.59730 | 23483 ft | 372 kts | 155° |
| 2026-05-05 09:33 | -3.77074 | 17.60711 | 23320 ft | 364 kts | 156° |
| 2026-05-05 09:34 | -3.79431 | 17.61662 | 23001 ft | 362 kts | 157° |
| 2026-05-05 09:34 | -3.81767 | 17.62570 | 22537 ft | 363 kts | 158° |
| 2026-05-05 09:34 | -3.84134 | 17.63474 | 22118 ft | 363 kts | 158° |
| 2026-05-05 09:34 | -3.86467 | 17.64362 | 21836 ft | 359 kts | 158° |
| 2026-05-05 09:35 | -3.88794 | 17.65291 | 21510 ft | 356 kts | 155° |
| 2026-05-05 09:35 | -3.93181 | 17.67486 | 20703 ft | 355 kts | 149° |
| 2026-05-05 09:35 | -3.95305 | 17.68752 | 20357 ft | 352 kts | 146° |
| 2026-05-05 09:36 | -3.97347 | 17.70082 | 20090 ft | 348 kts | 145° |
| 2026-05-05 09:36 | -3.99341 | 17.71432 | 19845 ft | 343 kts | 144° |
| 2026-05-05 09:36 | -4.01269 | 17.72767 | 19587 ft | 338 kts | 143° |
| 2026-05-05 09:36 | -4.03207 | 17.74106 | 19271 ft | 336 kts | 144° |
| 2026-05-05 09:37 | -4.05133 | 17.75446 | 18843 ft | 337 kts | 143° |
| 2026-05-05 09:37 | -4.07078 | 17.76791 | 18412 ft | 339 kts | 144° |
| 2026-05-05 09:37 | -4.09023 | 17.78085 | 18073 ft | 338 kts | 145° |
| 2026-05-05 09:37 | -4.10979 | 17.79356 | 17914 ft | 330 kts | 146° |
| 2026-05-05 09:38 | -4.12902 | 17.80594 | 17705 ft | 324 kts | 146° |
| 2026-05-05 09:38 | -4.14791 | 17.81793 | 17288 ft | 325 kts | 147° |
| 2026-05-05 09:38 | -4.16731 | 17.82998 | 16821 ft | 328 kts | 147° |
| 2026-05-05 09:38 | -4.18680 | 17.84200 | 16455 ft | 328 kts | 147° |
| 2026-05-05 09:39 | -4.20600 | 17.85388 | 16118 ft | 327 kts | 147° |
| 2026-05-05 09:39 | -4.22549 | 17.86578 | 15798 ft | 325 kts | 148° |
| 2026-05-05 09:39 | -4.24484 | 17.87683 | 15538 ft | 321 kts | 150° |
| 2026-05-05 09:39 | -4.26436 | 17.88762 | 15294 ft | 317 kts | 150° |
| 2026-05-05 09:40 | -4.28344 | 17.89830 | 14916 ft | 318 kts | 149° |
| 2026-05-05 09:40 | -4.30278 | 17.90939 | 14462 ft | 321 kts | 148° |
| 2026-05-05 09:40 | -4.32201 | 17.92102 | 14070 ft | 321 kts | 147° |
| 2026-05-05 09:40 | -4.34053 | 17.93311 | 13805 ft | 318 kts | 144° |
| 2026-05-05 09:41 | -4.35834 | 17.94583 | 13618 ft | 311 kts | 142° |
| 2026-05-05 09:41 | -4.37559 | 17.95895 | 13315 ft | 310 kts | 142° |
| 2026-05-05 09:41 | -4.39264 | 17.97199 | 12918 ft | 312 kts | 142° |
| 2026-05-05 09:41 | -4.41002 | 17.98540 | 12527 ft | 313 kts | 141° |
| 2026-05-05 09:42 | -4.42739 | 17.99870 | 12214 ft | 312 kts | 142° |
| 2026-05-05 09:42 | -4.44467 | 18.01148 | 11971 ft | 309 kts | 143° |
| 2026-05-05 09:42 | -4.46188 | 18.02392 | 11710 ft | 305 kts | 144° |
| 2026-05-05 09:42 | -4.47915 | 18.03624 | 11440 ft | 303 kts | 144° |
| 2026-05-05 09:43 | -4.49653 | 18.04842 | 11092 ft | 303 kts | 144° |
| 2026-05-05 09:43 | -4.51381 | 18.06020 | 10763 ft | 303 kts | 145° |
| 2026-05-05 09:43 | -4.53150 | 18.07154 | 10540 ft | 299 kts | 148° |
| 2026-05-05 09:43 | -4.54939 | 18.08197 | 10392 ft | 292 kts | 149° |
| 2026-05-05 09:44 | -4.56675 | 18.09209 | 10123 ft | 291 kts | 148° |
| 2026-05-05 09:44 | -4.58417 | 18.10279 | 9727 ft | 294 kts | 146° |
| 2026-05-05 09:44 | -4.60082 | 18.11449 | 9365 ft | 294 kts | 141° |
| 2026-05-05 09:44 | -4.61653 | 18.12756 | 9170 ft | 289 kts | 137° |
| 2026-05-05 09:45 | -4.63107 | 18.14105 | 8985 ft | 283 kts | 135° |
| 2026-05-05 09:45 | -4.64505 | 18.15499 | 8716 ft | 281 kts | 134° |
| 2026-05-05 09:45 | -4.65880 | 18.16889 | 8433 ft | 278 kts | 132° |
| 2026-05-05 09:45 | -4.67165 | 18.18333 | 8129 ft | 277 kts | 129° |
| 2026-05-05 09:46 | -4.68361 | 18.19842 | 7726 ft | 280 kts | 127° |
| 2026-05-05 09:46 | -4.69539 | 18.21415 | 7366 ft | 282 kts | 126° |
| 2026-05-05 09:46 | -4.70749 | 18.22954 | 7187 ft | 277 kts | 129° |
| 2026-05-05 09:46 | -4.72017 | 18.24345 | 7065 ft | 270 kts | 134° |
| 2026-05-05 09:47 | -4.73421 | 18.25634 | 6721 ft | 273 kts | 139° |
| 2026-05-05 09:47 | -4.74930 | 18.26793 | 6290 ft | 278 kts | 144° |
| 2026-05-05 09:47 | -4.76574 | 18.27832 | 5985 ft | 278 kts | 149° |
| 2026-05-05 09:47 | -4.78267 | 18.28740 | 5840 ft | 272 kts | 152° |
| 2026-05-05 09:48 | -4.79971 | 18.29522 | 5636 ft | 268 kts | 157° |
| 2026-05-05 09:48 | -4.81700 | 18.30202 | 5313 ft | 271 kts | 159° |
| 2026-05-05 09:48 | -4.83488 | 18.30862 | 4885 ft | 276 kts | 158° |
| 2026-05-05 09:48 | -4.85249 | 18.31666 | 4567 ft | 278 kts | 152° |
| 2026-05-05 09:49 | -4.86953 | 18.32547 | 4382 ft | 274 kts | 152° |
| 2026-05-05 09:49 | -4.88624 | 18.33421 | 4287 ft | 266 kts | 151° |
| 2026-05-05 09:49 | -4.90235 | 18.34310 | 4066 ft | 263 kts | 149° |
| 2026-05-05 09:49 | -4.91831 | 18.35252 | 3661 ft | 267 kts | 148° |
| 2026-05-05 09:50 | -4.93423 | 18.36224 | 3252 ft | 272 kts | 147° |
| 2026-05-05 09:50 | -4.95026 | 18.37238 | 2969 ft | 271 kts | 148° |
| 2026-05-05 09:50 | -4.96624 | 18.38222 | 2777 ft | 266 kts | 148° |
| 2026-05-05 09:50 | -4.98189 | 18.39141 | 2588 ft | 261 kts | 150° |
| 2026-05-05 09:51 | -4.99781 | 18.40033 | 2277 ft | 262 kts | 151° |
| 2026-05-05 09:51 | -5.01149 | 18.40779 | 2576 ft | 420 kts | 151° |
| 2026-05-05 09:51 | -5.02457 | 18.41484 | 7824 ft | 63 kts | 151° |
| 2026-05-05 09:51 | -5.02695 | 18.41598 | 9058 ft | 26 kts | 71° |
| 2026-05-05 09:52 | -5.02732 | 18.41567 | 4064 ft | 43 kts | 187° |
| 2026-05-05 09:52 | -5.02471 | 18.40205 | 2831 ft | 425 kts | 279° |
| 2026-05-05 09:52 | -5.01736 | 18.37508 | 2971 ft | 362 kts | 267° |
| 2026-05-05 09:52 | -5.02622 | 18.35741 | 5040 ft | 271 kts | 194° |
| 2026-05-05 09:53 | -5.04105 | 18.36433 | 5867 ft | 224 kts | 109° |
| 2026-05-05 09:53 | -5.04036 | 18.37713 | 7616 ft | 173 kts | 59° |
| 2026-05-05 09:53 | -5.03073 | 18.38310 | 8284 ft | 176 kts | 6° |
| 2026-05-05 09:53 | -5.01809 | 18.37898 | 8240 ft | 212 kts | 319° |
| 2026-05-05 09:54 | -5.01083 | 18.36681 | 8927 ft | 195 kts | 279° |
| 2026-05-05 09:54 | -5.01170 | 18.35447 | 9786 ft | 171 kts | 248° |
| 2026-05-05 09:54 | -5.01823 | 18.34384 | 9818 ft | 196 kts | 225° |
| 2026-05-05 09:54 | -5.02869 | 18.33476 | 10209 ft | 191 kts | 214° |
| 2026-05-05 09:55 | -5.03911 | 18.32790 | 11016 ft | 170 kts | 211° |
| 2026-05-05 09:55 | -5.04923 | 18.32098 | 11163 ft | 189 kts | 220° |
| 2026-05-05 09:55 | -5.05890 | 18.31106 | 11347 ft | 201 kts | 237° |
| 2026-05-05 09:55 | -5.06431 | 18.29877 | 11972 ft | 187 kts | 265° |
| 2026-05-05 09:56 | -5.06248 | 18.28624 | 12228 ft | 192 kts | 304° |
| 2026-05-05 09:56 | -5.05163 | 18.27774 | 12075 ft | 216 kts | 352° |
| 2026-05-05 09:56 | -5.03724 | 18.28147 | 12243 ft | 223 kts | 47° |
| 2026-05-05 09:56 | -5.03243 | 18.29530 | 12833 ft | 214 kts | 104° |
| 2026-05-05 09:57 | -5.04093 | 18.30662 | 13237 ft | 216 kts | 158° |
| 2026-05-05 09:57 | -5.05594 | 18.30645 | 13330 ft | 230 kts | 212° |
| 2026-05-05 09:57 | -5.06542 | 18.29379 | 13533 ft | 233 kts | 265° |
| 2026-05-05 09:57 | -5.06128 | 18.27910 | 13973 ft | 223 kts | 319° |
| 2026-05-05 09:58 | -5.04746 | 18.27386 | 14312 ft | 218 kts | 12° |
| 2026-05-05 09:58 | -5.03499 | 18.28187 | 14469 ft | 224 kts | 64° |
| 2026-05-05 09:58 | -5.03386 | 18.29721 | 14677 ft | 230 kts | 116° |
| 2026-05-05 09:58 | -5.04529 | 18.30750 | 15012 ft | 232 kts | 168° |
| 2026-05-05 09:59 | -5.06082 | 18.30499 | 15331 ft | 234 kts | 219° |
| 2026-05-05 09:59 | -5.06897 | 18.29129 | 15522 ft | 237 kts | 270° |
| 2026-05-05 09:59 | -5.06387 | 18.27622 | 15719 ft | 237 kts | 320° |
| 2026-05-05 09:59 | -5.04908 | 18.27048 | 15972 ft | 232 kts | 10° |
| 2026-05-05 10:00 | -5.03565 | 18.27809 | 16232 ft | 230 kts | 60° |
| 2026-05-05 10:00 | -5.03304 | 18.29354 | 16435 ft | 233 kts | 110° |
| 2026-05-05 10:00 | -5.04336 | 18.30550 | 16626 ft | 239 kts | 159° |
| 2026-05-05 10:00 | -5.05976 | 18.30542 | 16846 ft | 243 kts | 209° |
| 2026-05-05 10:01 | -5.07060 | 18.29289 | 17075 ft | 245 kts | 258° |
| 2026-05-05 10:01 | -5.06866 | 18.27658 | 17254 ft | 245 kts | 307° |
| 2026-05-05 10:01 | -5.05518 | 18.26692 | 17416 ft | 243 kts | 355° |
| 2026-05-05 10:01 | -5.03933 | 18.27065 | 17629 ft | 238 kts | 44° |
| 2026-05-05 10:02 | -5.03193 | 18.28468 | 17862 ft | 235 kts | 92° |
| 2026-05-05 10:02 | -5.03807 | 18.29969 | 17910 ft | 245 kts | 140° |
| 2026-05-05 10:02 | -5.05385 | 18.30523 | 18050 ft | 252 kts | 188° |
| 2026-05-05 10:02 | -5.06886 | 18.29706 | 18316 ft | 251 kts | 237° |
| 2026-05-05 10:03 | -5.07319 | 18.28075 | 18524 ft | 251 kts | 283° |
| 2026-05-05 10:03 | -5.06430 | 18.26602 | 18623 ft | 251 kts | 331° |
| 2026-05-05 10:03 | -5.04796 | 18.26247 | 18728 ft | 249 kts | 18° |
| 2026-05-05 10:03 | -5.03434 | 18.27218 | 18890 ft | 246 kts | 65° |
| 2026-05-05 10:04 | -5.03239 | 18.28875 | 19092 ft | 245 kts | 111° |
| 2026-05-05 10:04 | -5.04317 | 18.30138 | 19244 ft | 249 kts | 157° |
| 2026-05-05 10:04 | -5.06029 | 18.30258 | 19363 ft | 255 kts | 202° |
| 2026-05-05 10:04 | -5.07348 | 18.29096 | 19450 ft | 260 kts | 249° |
| 2026-05-05 10:05 | -5.07455 | 18.27344 | 19544 ft | 261 kts | 295° |
| 2026-05-05 10:05 | -5.06290 | 18.26025 | 19712 ft | 256 kts | 341° |
| 2026-05-05 10:05 | -5.04571 | 18.25945 | 19887 ft | 250 kts | 26° |
| 2026-05-05 10:05 | -5.03357 | 18.27097 | 19987 ft | 249 kts | 71° |
| 2026-05-05 10:06 | -5.03347 | 18.28809 | 20055 ft | 254 kts | 117° |
| 2026-05-05 10:06 | -5.04588 | 18.30030 | 20179 ft | 258 kts | 162° |
| 2026-05-05 10:06 | -5.06337 | 18.30012 | 20298 ft | 262 kts | 207° |
| 2026-05-05 10:06 | -5.07613 | 18.28738 | 20382 ft | 265 kts | 252° |
| 2026-05-05 10:07 | -5.07651 | 18.26947 | 20461 ft | 264 kts | 297° |
| 2026-05-05 10:07 | -5.06454 | 18.25644 | 20568 ft | 260 kts | 341° |
| 2026-05-05 10:07 | -5.04690 | 18.25560 | 20685 ft | 255 kts | 26° |
| 2026-05-05 10:07 | -5.03432 | 18.26718 | 20774 ft | 254 kts | 70° |
| 2026-05-05 10:08 | -5.03364 | 18.28472 | 20858 ft | 257 kts | 114° |
| 2026-05-05 10:08 | -5.04544 | 18.29757 | 20943 ft | 262 kts | 158° |
| 2026-05-05 10:08 | -5.06342 | 18.29862 | 21004 ft | 267 kts | 202° |
| 2026-05-05 10:08 | -5.07736 | 18.28681 | 21066 ft | 269 kts | 247° |
| 2026-05-05 10:09 | -5.07949 | 18.26872 | 21139 ft | 268 kts | 290° |
| 2026-05-05 10:09 | -5.06868 | 18.25411 | 21221 ft | 264 kts | 335° |
| 2026-05-05 10:09 | -5.05124 | 18.25119 | 21297 ft | 260 kts | 18° |
| 2026-05-05 10:09 | -5.03671 | 18.26133 | 21378 ft | 258 kts | 62° |
| 2026-05-05 10:10 | -5.03345 | 18.27848 | 21449 ft | 259 kts | 105° |
| 2026-05-05 10:10 | -5.04322 | 18.29339 | 21504 ft | 264 kts | 148° |
| 2026-05-05 10:10 | -5.06074 | 18.29757 | 21546 ft | 270 kts | 192° |
| 2026-05-05 10:10 | -5.07690 | 18.28844 | 21596 ft | 272 kts | 236° |
| 2026-05-05 10:11 | -5.08254 | 18.27068 | 21648 ft | 272 kts | 279° |
| 2026-05-05 10:11 | -5.07487 | 18.25414 | 21714 ft | 268 kts | 322° |
| 2026-05-05 10:11 | -5.05806 | 18.24726 | 21789 ft | 263 kts | 6° |
| 2026-05-05 10:11 | -5.04169 | 18.25374 | 21839 ft | 261 kts | 49° |
| 2026-05-05 10:12 | -5.03442 | 18.27012 | 21843 ft | 263 kts | 92° |
| 2026-05-05 10:12 | -5.04061 | 18.28692 | 21850 ft | 268 kts | 136° |
| 2026-05-05 10:12 | -5.05712 | 18.29495 | 21918 ft | 272 kts | 179° |
| 2026-05-05 10:12 | -5.07493 | 18.28946 | 22007 ft | 274 kts | 223° |
| 2026-05-05 10:13 | -5.08445 | 18.27332 | 22074 ft | 273 kts | 266° |
| 2026-05-05 10:13 | -5.08063 | 18.25510 | 22094 ft | 272 kts | 309° |
| 2026-05-05 10:13 | -5.06594 | 18.24445 | 22136 ft | 268 kts | 351° |
| 2026-05-05 10:13 | -5.04797 | 18.24667 | 22188 ft | 264 kts | 34° |
| 2026-05-05 10:14 | -5.03660 | 18.26064 | 22255 ft | 264 kts | 77° |
| 2026-05-05 10:14 | -5.03801 | 18.27859 | 22298 ft | 268 kts | 120° |
| 2026-05-05 10:14 | -5.05161 | 18.29100 | 22349 ft | 272 kts | 162° |
| 2026-05-05 10:14 | -5.07003 | 18.29102 | 22388 ft | 275 kts | 205° |
| 2026-05-05 10:15 | -5.08419 | 18.27838 | 22423 ft | 277 kts | 248° |
| 2026-05-05 10:15 | -5.08638 | 18.25986 | 22459 ft | 275 kts | 290° |
| 2026-05-05 10:15 | -5.07563 | 18.24459 | 22488 ft | 271 kts | 333° |
| 2026-05-05 10:15 | -5.05759 | 18.24076 | 22524 ft | 268 kts | 15° |
| 2026-05-05 10:16 | -5.04213 | 18.25025 | 22573 ft | 266 kts | 58° |
| 2026-05-05 10:16 | -5.03744 | 18.26762 | 22605 ft | 267 kts | 100° |
| 2026-05-05 10:16 | -5.04593 | 18.28374 | 22617 ft | 272 kts | 143° |
| 2026-05-05 10:16 | -5.06362 | 18.29003 | 22643 ft | 276 kts | 186° |
| 2026-05-05 10:17 | -5.08111 | 18.28273 | 22687 ft | 279 kts | 228° |
| 2026-05-05 10:17 | -5.08937 | 18.26584 | 22712 ft | 278 kts | 270° |
| 2026-05-05 10:17 | -5.08434 | 18.24764 | 22734 ft | 274 kts | 313° |
| 2026-05-05 10:17 | -5.06858 | 18.23770 | 22760 ft | 270 kts | 355° |
| 2026-05-05 10:18 | -5.05075 | 18.24098 | 22791 ft | 268 kts | 37° |
| 2026-05-05 10:18 | -5.03985 | 18.25559 | 22837 ft | 267 kts | 79° |
| 2026-05-05 10:18 | -5.04188 | 18.27380 | 22875 ft | 270 kts | 121° |
| 2026-05-05 10:18 | -5.05576 | 18.28599 | 22891 ft | 275 kts | 163° |
| 2026-05-05 10:19 | -5.07475 | 18.28582 | 22938 ft | 278 kts | 206° |
| 2026-05-05 10:19 | -5.08880 | 18.27320 | 22949 ft | 280 kts | 247° |
| 2026-05-05 10:19 | -5.09107 | 18.25414 | 22955 ft | 278 kts | 290° |
| 2026-05-05 10:19 | -5.08047 | 18.23874 | 22985 ft | 274 kts | 331° |
| 2026-05-05 10:20 | -5.06255 | 18.23417 | 23079 ft | 268 kts | 12° |
| 2026-05-05 10:20 | -5.04648 | 18.24279 | 23129 ft | 266 kts | 54° |
| 2026-05-05 10:20 | -5.04066 | 18.25987 | 23069 ft | 270 kts | 96° |
| 2026-05-05 10:20 | -5.04819 | 18.27699 | 23033 ft | 276 kts | 139° |
| 2026-05-05 10:21 | -5.05908 | 18.28351 | 23049 ft | 279 kts | 167° |
| 2026-05-05 10:21 | -5.08352 | 18.27881 | 23130 ft | 280 kts | 223° |
| 2026-05-05 10:21 | -5.09326 | 18.26239 | 23145 ft | 279 kts | 265° |
| 2026-05-05 10:21 | -5.08958 | 18.24360 | 23098 ft | 278 kts | 308° |
| 2026-05-05 10:22 | -5.07473 | 18.23237 | 23088 ft | 274 kts | 349° |
| 2026-05-05 10:22 | -5.05626 | 18.23404 | 23137 ft | 269 kts | 32° |
| 2026-05-05 10:22 | -5.04699 | 18.24207 | 23181 ft | 268 kts | 60° |
| 2026-05-05 10:22 | -5.04438 | 18.26592 | 23195 ft | 271 kts | 116° |
| 2026-05-05 10:23 | -5.05182 | 18.27607 | 23169 ft | 276 kts | 144° |
| 2026-05-05 10:23 | -5.06985 | 18.28209 | 23165 ft | 280 kts | 186° |
| 2026-05-05 10:23 | -5.08726 | 18.27479 | 23199 ft | 281 kts | 227° |
| 2026-05-05 10:23 | -5.09583 | 18.25748 | 23230 ft | 279 kts | 270° |
| 2026-05-05 10:24 | -5.09111 | 18.23930 | 23246 ft | 276 kts | 311° |
| 2026-05-05 10:24 | -5.07566 | 18.22880 | 23266 ft | 271 kts | 353° |
| 2026-05-05 10:24 | -5.05737 | 18.23142 | 23287 ft | 269 kts | 35° |
| 2026-05-05 10:24 | -5.04588 | 18.24570 | 23282 ft | 270 kts | 77° |
| 2026-05-05 10:25 | -5.04713 | 18.26408 | 23288 ft | 273 kts | 119° |
| 2026-05-05 10:25 | -5.06073 | 18.27702 | 23296 ft | 277 kts | 161° |
| 2026-05-05 10:25 | -5.07958 | 18.27751 | 23285 ft | 281 kts | 204° |
| 2026-05-05 10:25 | -5.09433 | 18.26501 | 23250 ft | 283 kts | 246° |
| 2026-05-05 10:26 | -5.09711 | 18.24611 | 23268 ft | 280 kts | 288° |
| 2026-05-05 10:26 | -5.08678 | 18.23021 | 23337 ft | 274 kts | 330° |
| 2026-05-05 10:26 | -5.06897 | 18.22542 | 23358 ft | 269 kts | 12° |
| 2026-05-05 10:26 | -5.05291 | 18.23382 | 23327 ft | 270 kts | 53° |
| 2026-05-05 10:27 | -5.04670 | 18.25128 | 23310 ft | 272 kts | 96° |
| 2026-05-05 10:27 | -5.05405 | 18.26841 | 23339 ft | 275 kts | 138° |
| 2026-05-05 10:27 | -5.07101 | 18.27629 | 23403 ft | 278 kts | 179° |
| 2026-05-05 10:27 | -5.08934 | 18.27093 | 23427 ft | 280 kts | 221° |
| 2026-05-05 10:28 | -5.09965 | 18.25476 | 23408 ft | 281 kts | 263° |
| 2026-05-05 10:28 | -5.09681 | 18.23582 | 23396 ft | 279 kts | 305° |
| 2026-05-05 10:28 | -5.08243 | 18.22383 | 23415 ft | 274 kts | 347° |
| 2026-05-05 10:28 | -5.06390 | 18.22470 | 23461 ft | 270 kts | 30° |
| 2026-05-05 10:29 | -5.05114 | 18.23764 | 23477 ft | 269 kts | 71° |
| 2026-05-05 10:29 | -5.05052 | 18.25618 | 23469 ft | 273 kts | 113° |
| 2026-05-05 10:29 | -5.06283 | 18.27036 | 23457 ft | 278 kts | 156° |
| 2026-05-05 10:29 | -5.08154 | 18.27272 | 23469 ft | 281 kts | 197° |
| 2026-05-05 10:30 | -5.09749 | 18.26196 | 23492 ft | 281 kts | 239° |
| 2026-05-05 10:30 | -5.10240 | 18.24335 | 23511 ft | 279 kts | 281° |
| 2026-05-05 10:30 | -5.09420 | 18.22647 | 23551 ft | 275 kts | 322° |
| 2026-05-05 10:30 | -5.07722 | 18.21933 | 23557 ft | 271 kts | 4° |
| 2026-05-05 10:31 | -5.05984 | 18.22555 | 23530 ft | 270 kts | 46° |
| 2026-05-05 10:31 | -5.05140 | 18.24198 | 23525 ft | 272 kts | 89° |
| 2026-05-05 10:31 | -5.05653 | 18.25978 | 23522 ft | 276 kts | 131° |
| 2026-05-05 10:31 | -5.07275 | 18.26961 | 23520 ft | 280 kts | 174° |
| 2026-05-05 10:32 | -5.09162 | 18.26606 | 23558 ft | 282 kts | 216° |
| 2026-05-05 10:32 | -5.10344 | 18.25092 | 23577 ft | 281 kts | 258° |
| 2026-05-05 10:32 | -5.10231 | 18.23181 | 23570 ft | 278 kts | 300° |
| 2026-05-05 10:32 | -5.08921 | 18.21860 | 23569 ft | 274 kts | 342° |
| 2026-05-05 10:33 | -5.07070 | 18.21757 | 23579 ft | 270 kts | 24° |
| 2026-05-05 10:33 | -5.05657 | 18.22942 | 23586 ft | 270 kts | 66° |
| 2026-05-05 10:33 | -5.05427 | 18.24760 | 23585 ft | 273 kts | 108° |
| 2026-05-05 10:33 | -5.06497 | 18.26286 | 23593 ft | 277 kts | 149° |
| 2026-05-05 10:34 | -5.08348 | 18.26716 | 23615 ft | 280 kts | 192° |
| 2026-05-05 10:34 | -5.10036 | 18.25797 | 23615 ft | 282 kts | 234° |
| 2026-05-05 10:34 | -5.10704 | 18.23989 | 23621 ft | 281 kts | 276° |
| 2026-05-05 10:34 | -5.10042 | 18.22227 | 23653 ft | 276 kts | 317° |
| 2026-05-05 10:35 | -5.08393 | 18.21357 | 23680 ft | 271 kts | 359° |
| 2026-05-05 10:35 | -5.06614 | 18.21834 | 23663 ft | 270 kts | 41° |
| 2026-05-05 10:35 | -5.05634 | 18.23403 | 23658 ft | 271 kts | 84° |
| 2026-05-05 10:35 | -5.05987 | 18.25213 | 23657 ft | 275 kts | 126° |
| 2026-05-05 10:36 | -5.07497 | 18.26351 | 23711 ft | 278 kts | 167° |
| 2026-05-05 10:36 | -5.09379 | 18.26205 | 23743 ft | 280 kts | 209° |
| 2026-05-05 10:36 | -5.10725 | 18.24843 | 23731 ft | 281 kts | 251° |
| 2026-05-05 10:36 | -5.10847 | 18.22928 | 23694 ft | 280 kts | 293° |
| 2026-05-05 10:37 | -5.09696 | 18.21414 | 23753 ft | 274 kts | 334° |
| 2026-05-05 10:37 | -5.07898 | 18.21060 | 23823 ft | 269 kts | 15° |
| 2026-05-05 10:37 | -5.06334 | 18.22025 | 23790 ft | 269 kts | 58° |
| 2026-05-05 10:37 | -5.05855 | 18.23803 | 23721 ft | 274 kts | 100° |
| 2026-05-05 10:38 | -5.06729 | 18.25486 | 23737 ft | 278 kts | 142° |
| 2026-05-05 10:38 | -5.08493 | 18.26133 | 23792 ft | 279 kts | 185° |
| 2026-05-05 10:38 | -5.10285 | 18.25431 | 23831 ft | 280 kts | 227° |
| 2026-05-05 10:38 | -5.11167 | 18.23745 | 23792 ft | 281 kts | 268° |
| 2026-05-05 10:39 | -5.10723 | 18.21882 | 23767 ft | 278 kts | 310° |
| 2026-05-05 10:39 | -5.09173 | 18.20809 | 23793 ft | 273 kts | 352° |
| 2026-05-05 10:39 | -5.07364 | 18.21053 | 23845 ft | 269 kts | 34° |
| 2026-05-05 10:39 | -5.06197 | 18.22459 | 23864 ft | 269 kts | 76° |
| 2026-05-05 10:40 | -5.06294 | 18.24312 | 23848 ft | 273 kts | 118° |
| 2026-05-05 10:40 | -5.07628 | 18.25638 | 23846 ft | 278 kts | 159° |
| 2026-05-05 10:40 | -5.09536 | 18.25736 | 23840 ft | 282 kts | 202° |
| 2026-05-05 10:40 | -5.11039 | 18.24543 | 23843 ft | 283 kts | 244° |
| 2026-05-05 10:41 | -5.11392 | 18.22645 | 23873 ft | 279 kts | 286° |
| 2026-05-05 10:41 | -5.10414 | 18.21030 | 23884 ft | 275 kts | 328° |
| 2026-05-05 10:41 | -5.08633 | 18.20495 | 23892 ft | 271 kts | 10° |
| 2026-05-05 10:41 | -5.06991 | 18.21274 | 23917 ft | 269 kts | 51° |
| 2026-05-05 10:42 | -5.06962 | 18.24735 | 23901 ft | 276 kts | 136° |
| 2026-05-05 10:42 | -5.08635 | 18.25594 | 23906 ft | 281 kts | 177° |
| 2026-05-05 10:42 | -5.10502 | 18.25117 | 23944 ft | 282 kts | 220° |
| 2026-05-05 10:43 | -5.11590 | 18.23518 | 23998 ft | 280 kts | 262° |
| 2026-05-05 10:43 | -5.11372 | 18.21637 | 24021 ft | 277 kts | 303° |
| 2026-05-05 10:43 | -5.09978 | 18.20378 | 24017 ft | 273 kts | 345° |
| 2026-05-05 10:43 | -5.08123 | 18.20391 | 24000 ft | 271 kts | 27° |
| 2026-05-05 10:44 | -5.06793 | 18.21641 | 23983 ft | 271 kts | 69° |
| 2026-05-05 10:44 | -5.06661 | 18.23499 | 23974 ft | 274 kts | 111° |
| 2026-05-05 10:44 | -5.07813 | 18.24963 | 23994 ft | 277 kts | 153° |
| 2026-05-05 10:44 | -5.09692 | 18.25291 | 24008 ft | 281 kts | 195° |
| 2026-05-05 10:45 | -5.11331 | 18.24275 | 24004 ft | 283 kts | 237° |
| 2026-05-05 10:45 | -5.11899 | 18.22431 | 24023 ft | 281 kts | 279° |
| 2026-05-05 10:45 | -5.11123 | 18.20712 | 24043 ft | 276 kts | 321° |
| 2026-05-05 10:45 | -5.09415 | 18.19961 | 24043 ft | 272 kts | 3° |
| 2026-05-05 10:46 | -5.07665 | 18.20562 | 24050 ft | 271 kts | 45° |
| 2026-05-05 10:46 | -5.06795 | 18.22189 | 24078 ft | 271 kts | 87° |
| 2026-05-05 10:46 | -5.07248 | 18.23972 | 24089 ft | 274 kts | 129° |
| 2026-05-05 10:46 | -5.08832 | 18.25017 | 24048 ft | 280 kts | 171° |
| 2026-05-05 10:47 | -5.10740 | 18.24736 | 24043 ft | 283 kts | 213° |
| 2026-05-05 10:47 | -5.11979 | 18.23286 | 24076 ft | 281 kts | 255° |
| 2026-05-05 10:47 | -5.11972 | 18.21374 | 24109 ft | 277 kts | 296° |
| 2026-05-05 10:47 | -5.10726 | 18.19959 | 24136 ft | 272 kts | 339° |
| 2026-05-05 10:48 | -5.08902 | 18.19750 | 24119 ft | 270 kts | 20° |
| 2026-05-05 10:48 | -5.07409 | 18.20835 | 24104 ft | 271 kts | 62° |
| 2026-05-05 10:48 | -5.07050 | 18.22638 | 24102 ft | 273 kts | 104° |
| 2026-05-05 10:48 | -5.08020 | 18.24246 | 24121 ft | 276 kts | 146° |
| 2026-05-05 10:49 | -5.09817 | 18.24802 | 24136 ft | 280 kts | 187° |
| 2026-05-05 10:49 | -5.11568 | 18.24019 | 24133 ft | 281 kts | 230° |
| 2026-05-05 10:49 | -5.12373 | 18.22267 | 24117 ft | 281 kts | 271° |
| 2026-05-05 10:49 | -5.11841 | 18.20451 | 24128 ft | 277 kts | 313° |
| 2026-05-05 10:50 | -5.10252 | 18.19451 | 24176 ft | 271 kts | 355° |
| 2026-05-05 10:50 | -5.08447 | 18.19786 | 24183 ft | 269 kts | 37° |
| 2026-05-05 10:50 | -5.07352 | 18.21243 | 24169 ft | 271 kts | 78° |
| 2026-05-05 10:50 | -5.07540 | 18.23108 | 24165 ft | 275 kts | 121° |
| 2026-05-05 10:51 | -5.08931 | 18.24357 | 24179 ft | 279 kts | 162° |
| 2026-05-05 10:51 | -5.10840 | 18.24382 | 24213 ft | 280 kts | 204° |
| 2026-05-05 10:51 | -5.12309 | 18.23151 | 24248 ft | 280 kts | 245° |
| 2026-05-05 10:51 | -5.12611 | 18.21264 | 24212 ft | 278 kts | 287° |
| 2026-05-05 10:52 | -5.11614 | 18.19679 | 24186 ft | 276 kts | 329° |
| 2026-05-05 10:52 | -5.09807 | 18.19173 | 24192 ft | 272 kts | 11° |
| 2026-05-05 10:52 | -5.08166 | 18.20017 | 24249 ft | 269 kts | 53° |
| 2026-05-05 10:52 | -5.07537 | 18.21724 | 24276 ft | 270 kts | 95° |
| 2026-05-05 10:53 | -5.08235 | 18.23456 | 24274 ft | 275 kts | 136° |
| 2026-05-05 10:53 | -5.09909 | 18.24300 | 24266 ft | 279 kts | 177° |
| 2026-05-05 10:53 | -5.11766 | 18.23826 | 24252 ft | 282 kts | 220° |
| 2026-05-05 10:53 | -5.12856 | 18.22239 | 24250 ft | 281 kts | 261° |
| 2026-05-05 10:54 | -5.12654 | 18.20360 | 24287 ft | 276 kts | 303° |
| 2026-05-05 10:54 | -5.11277 | 18.19095 | 24297 ft | 272 kts | 344° |
| 2026-05-05 10:54 | -5.09426 | 18.19090 | 24298 ft | 270 kts | 26° |
| 2026-05-05 10:54 | -5.08081 | 18.20318 | 24290 ft | 271 kts | 68° |
| 2026-05-05 10:55 | -5.07920 | 18.22171 | 24291 ft | 274 kts | 110° |
| 2026-05-05 10:55 | -5.09078 | 18.23667 | 24307 ft | 277 kts | 152° |
| 2026-05-05 10:55 | -5.10923 | 18.24021 | 24366 ft | 279 kts | 194° |
| 2026-05-05 10:55 | -5.12571 | 18.23053 | 24442 ft | 282 kts | 236° |